<?xml version="1.0" encoding="UTF-8" standalone="no" ?>
<gpx xmlns="http://www.topografix.com/GPX/1/1" xmlns:xsi="http://www.w3.org/2001/XMLSchema-instance" xsi:schemaLocation="http://www.topografix.com/GPX/1/1 http://www.topografix.com/GPX/1/1/gpx.xsd" version="1.1" creator="VisuGPX - https://www.visugpx.com">
  <metadata>
    <name>Col de Pierrefitte - 2466 m</name>
    <desc><![CDATA[Col de Pierrefitte en ski de rando ]]></desc>
  </metadata>
  <wpt lat="42.86057" lon="0.00435">
    <ele>1270.76</ele>
    <name><![CDATA[0000020]]></name>
    <type><![CDATA[Point de départ]]></type>
  </wpt>
  <wpt lat="42.86059" lon="0.00435">
    <ele>1278.52</ele>
    <name><![CDATA[0000021]]></name>
    <desc><![CDATA[<p><br /><h3>Nom: Segment: 1</h3><br />Heure de départ: 03/06/2018 09:00<br/>Heure d'arrivée: 03/06/2018 16:01<br/>Distance: 15,4km (07:00)<br/>Temps déplacement: 03:21<br/>Vitesse moyenne: 2,2 km/h<br/>Vitesse moyenne mouv.: 4,39 km/h<br/>Vitesse Max.: 27,65 km/h<br/>Altitude minimale: 1270 m<br/>Altitude maximale: 2469 m<br/>Vitesse de montée: 298,9 m/h<br/>Vitesse de descente: -574,8 m/h<br/>Gain d'altitude: 1370 m<br/>Perte d'altitude: -1362 m<br/>Temps de montée: 04:35<br/>Temps de descente: 02:22<br/></p>]]></desc>
    <type><![CDATA[Point d'arrivée]]></type>
  </wpt>
  <trk>
    <name><![CDATA[2018-03-06 09:00]]></name>
    <desc><![CDATA[<p>Heure de départ: 03/06/2018 09:00<br/>Heure d'arrivée: 03/06/2018 16:01<br/>Distance: 15,4 km (07:00)<br/>Temps déplacement: 03:21<br/>Vitesse moyenne: 2,2 km/h<br/>Vitesse moyenne mouv.: 4,6 km/h<br/>Vitesse Max.: 27,65 km/h<br/>Altitude minimale: 1270 m<br/>Altitude maximale: 2469 m<br/>Vitesse de montée: 295,5 m/h<br/>Vitesse de descente: -551,6 m/h<br/>Gain d'altitude: 1349 m<br/>Perte d'altitude: -1343 m<br/>Temps de montée: 04:34<br/>Temps de descente: 02:26<br/></p><hr align="center" width="480" style="height: 2px; width: 517px"/>]]></desc>
    <trkseg>
      <trkpt lat="42.86057" lon="0.00435">
        <ele>1270.76</ele>
        <time>2018-03-06T08:00:59Z</time>
      </trkpt>
      <trkpt lat="42.86059" lon="0.00459">
        <ele>1273.52</ele>
        <time>2018-03-06T08:04:47Z</time>
      </trkpt>
      <trkpt lat="42.86055" lon="0.00484">
        <ele>1276.22</ele>
        <time>2018-03-06T08:05:07Z</time>
      </trkpt>
      <trkpt lat="42.86053" lon="0.00509">
        <ele>1279.49</ele>
        <time>2018-03-06T08:05:26Z</time>
      </trkpt>
      <trkpt lat="42.86049" lon="0.00533">
        <ele>1280.54</ele>
        <time>2018-03-06T08:05:45Z</time>
      </trkpt>
      <trkpt lat="42.86056" lon="0.00557">
        <ele>1283.82</ele>
        <time>2018-03-06T08:06:06Z</time>
      </trkpt>
      <trkpt lat="42.86062" lon="0.00579">
        <ele>1287.52</ele>
        <time>2018-03-06T08:06:25Z</time>
      </trkpt>
      <trkpt lat="42.8607" lon="0.00603">
        <ele>1287.55</ele>
        <time>2018-03-06T08:06:45Z</time>
      </trkpt>
      <trkpt lat="42.86072" lon="0.00627">
        <ele>1289.52</ele>
        <time>2018-03-06T08:07:02Z</time>
      </trkpt>
      <trkpt lat="42.86054" lon="0.00624">
        <ele>1286.82</ele>
        <time>2018-03-06T08:07:26Z</time>
      </trkpt>
      <trkpt lat="42.8605" lon="0.006">
        <ele>1286.52</ele>
        <time>2018-03-06T08:07:46Z</time>
      </trkpt>
      <trkpt lat="42.86037" lon="0.00582">
        <ele>1286.61</ele>
        <time>2018-03-06T08:08:06Z</time>
      </trkpt>
      <trkpt lat="42.86023" lon="0.00566">
        <ele>1292.22</ele>
        <time>2018-03-06T08:08:27Z</time>
      </trkpt>
      <trkpt lat="42.8602" lon="0.00541">
        <ele>1296.51</ele>
        <time>2018-03-06T08:08:49Z</time>
      </trkpt>
      <trkpt lat="42.86017" lon="0.00516">
        <ele>1293.61</ele>
        <time>2018-03-06T08:09:09Z</time>
      </trkpt>
      <trkpt lat="42.86014" lon="0.0049">
        <ele>1296.49</ele>
        <time>2018-03-06T08:09:30Z</time>
      </trkpt>
      <trkpt lat="42.86001" lon="0.00472">
        <ele>1297.43</ele>
        <time>2018-03-06T08:09:47Z</time>
      </trkpt>
      <trkpt lat="42.85987" lon="0.00454">
        <ele>1300.54</ele>
        <time>2018-03-06T08:10:13Z</time>
      </trkpt>
      <trkpt lat="42.8598" lon="0.00431">
        <ele>1302.52</ele>
        <time>2018-03-06T08:10:32Z</time>
      </trkpt>
      <trkpt lat="42.85968" lon="0.00411">
        <ele>1304.22</ele>
        <time>2018-03-06T08:10:49Z</time>
      </trkpt>
      <trkpt lat="42.85969" lon="0.00437">
        <ele>1310.43</ele>
        <time>2018-03-06T08:11:34Z</time>
      </trkpt>
      <trkpt lat="42.85975" lon="0.0046">
        <ele>1310.52</ele>
        <time>2018-03-06T08:11:55Z</time>
      </trkpt>
      <trkpt lat="42.8598" lon="0.00486">
        <ele>1313.22</ele>
        <time>2018-03-06T08:12:17Z</time>
      </trkpt>
      <trkpt lat="42.85981" lon="0.00511">
        <ele>1318.61</ele>
        <time>2018-03-06T08:12:39Z</time>
      </trkpt>
      <trkpt lat="42.85984" lon="0.00536">
        <ele>1320.52</ele>
        <time>2018-03-06T08:13:02Z</time>
      </trkpt>
      <trkpt lat="42.85979" lon="0.00561">
        <ele>1323.52</ele>
        <time>2018-03-06T08:13:22Z</time>
      </trkpt>
      <trkpt lat="42.8598" lon="0.00586">
        <ele>1324.43</ele>
        <time>2018-03-06T08:13:43Z</time>
      </trkpt>
      <trkpt lat="42.85987" lon="0.0061">
        <ele>1328.21</ele>
        <time>2018-03-06T08:14:04Z</time>
      </trkpt>
      <trkpt lat="42.8599" lon="0.00635">
        <ele>1332.22</ele>
        <time>2018-03-06T08:14:26Z</time>
      </trkpt>
      <trkpt lat="42.85989" lon="0.0066">
        <ele>1333.52</ele>
        <time>2018-03-06T08:14:43Z</time>
      </trkpt>
      <trkpt lat="42.85981" lon="0.00684">
        <ele>1332.55</ele>
        <time>2018-03-06T08:15:03Z</time>
      </trkpt>
      <trkpt lat="42.85968" lon="0.007">
        <ele>1334.44</ele>
        <time>2018-03-06T08:15:21Z</time>
      </trkpt>
      <trkpt lat="42.85953" lon="0.00714">
        <ele>1334.22</ele>
        <time>2018-03-06T08:15:41Z</time>
      </trkpt>
      <trkpt lat="42.85946" lon="0.00738">
        <ele>1336.43</ele>
        <time>2018-03-06T08:16:05Z</time>
      </trkpt>
      <trkpt lat="42.85937" lon="0.00759">
        <ele>1339.21</ele>
        <time>2018-03-06T08:16:17Z</time>
      </trkpt>
      <trkpt lat="42.85931" lon="0.00783">
        <ele>1336.91</ele>
        <time>2018-03-06T08:16:41Z</time>
      </trkpt>
      <trkpt lat="42.8592" lon="0.00803">
        <ele>1336.81</ele>
        <time>2018-03-06T08:17:01Z</time>
      </trkpt>
      <trkpt lat="42.8591" lon="0.00825">
        <ele>1334.52</ele>
        <time>2018-03-06T08:17:27Z</time>
      </trkpt>
      <trkpt lat="42.85898" lon="0.00845">
        <ele>1328.82</ele>
        <time>2018-03-06T08:17:44Z</time>
      </trkpt>
      <trkpt lat="42.85884" lon="0.00861">
        <ele>1322.53</ele>
        <time>2018-03-06T08:18:17Z</time>
      </trkpt>
      <trkpt lat="42.85868" lon="0.00873">
        <ele>1312.55</ele>
        <time>2018-03-06T08:18:42Z</time>
      </trkpt>
      <trkpt lat="42.85854" lon="0.00891">
        <ele>1305.91</ele>
        <time>2018-03-06T08:18:56Z</time>
      </trkpt>
      <trkpt lat="42.85842" lon="0.0091">
        <ele>1302.53</ele>
        <time>2018-03-06T08:19:11Z</time>
      </trkpt>
      <trkpt lat="42.8583" lon="0.0093">
        <ele>1300.61</ele>
        <time>2018-03-06T08:19:24Z</time>
      </trkpt>
      <trkpt lat="42.85816" lon="0.00948">
        <ele>1299.52</ele>
        <time>2018-03-06T08:19:37Z</time>
      </trkpt>
      <trkpt lat="42.85803" lon="0.00966">
        <ele>1299.22</ele>
        <time>2018-03-06T08:19:51Z</time>
      </trkpt>
      <trkpt lat="42.8579" lon="0.00983">
        <ele>1298.52</ele>
        <time>2018-03-06T08:20:06Z</time>
      </trkpt>
      <trkpt lat="42.85777" lon="0.01001">
        <ele>1298.52</ele>
        <time>2018-03-06T08:20:20Z</time>
      </trkpt>
      <trkpt lat="42.85761" lon="0.01015">
        <ele>1299.52</ele>
        <time>2018-03-06T08:20:35Z</time>
      </trkpt>
      <trkpt lat="42.85743" lon="0.01024">
        <ele>1302.49</ele>
        <time>2018-03-06T08:20:49Z</time>
      </trkpt>
      <trkpt lat="42.85727" lon="0.01036">
        <ele>1303.52</ele>
        <time>2018-03-06T08:21:02Z</time>
      </trkpt>
      <trkpt lat="42.8571" lon="0.01049">
        <ele>1305.54</ele>
        <time>2018-03-06T08:21:17Z</time>
      </trkpt>
      <trkpt lat="42.85695" lon="0.01062">
        <ele>1308.52</ele>
        <time>2018-03-06T08:21:31Z</time>
      </trkpt>
      <trkpt lat="42.85679" lon="0.01074">
        <ele>1313.49</ele>
        <time>2018-03-06T08:21:54Z</time>
      </trkpt>
      <trkpt lat="42.85669" lon="0.01096">
        <ele>1316.5</ele>
        <time>2018-03-06T08:22:13Z</time>
      </trkpt>
      <trkpt lat="42.85657" lon="0.01117">
        <ele>1320.4</ele>
        <time>2018-03-06T08:22:28Z</time>
      </trkpt>
      <trkpt lat="42.85648" lon="0.01138">
        <ele>1322.51</ele>
        <time>2018-03-06T08:22:43Z</time>
      </trkpt>
      <trkpt lat="42.85642" lon="0.01161">
        <ele>1325.52</ele>
        <time>2018-03-06T08:23:03Z</time>
      </trkpt>
      <trkpt lat="42.85635" lon="0.01186">
        <ele>1326.72</ele>
        <time>2018-03-06T08:23:20Z</time>
      </trkpt>
      <trkpt lat="42.85629" lon="0.0121">
        <ele>1329.22</ele>
        <time>2018-03-06T08:23:36Z</time>
      </trkpt>
      <trkpt lat="42.85621" lon="0.01233">
        <ele>1333.21</ele>
        <time>2018-03-06T08:23:49Z</time>
      </trkpt>
      <trkpt lat="42.85614" lon="0.01257">
        <ele>1338.42</ele>
        <time>2018-03-06T08:24:03Z</time>
      </trkpt>
      <trkpt lat="42.85608" lon="0.0128">
        <ele>1345.4</ele>
        <time>2018-03-06T08:24:18Z</time>
      </trkpt>
      <trkpt lat="42.856" lon="0.01303">
        <ele>1350.21</ele>
        <time>2018-03-06T08:24:32Z</time>
      </trkpt>
      <trkpt lat="42.85599" lon="0.01329">
        <ele>1356.42</ele>
        <time>2018-03-06T08:24:45Z</time>
      </trkpt>
      <trkpt lat="42.85593" lon="0.01354">
        <ele>1364.1</ele>
        <time>2018-03-06T08:24:57Z</time>
      </trkpt>
      <trkpt lat="42.85586" lon="0.01378">
        <ele>1368.42</ele>
        <time>2018-03-06T08:25:08Z</time>
      </trkpt>
      <trkpt lat="42.85579" lon="0.01401">
        <ele>1372.43</ele>
        <time>2018-03-06T08:25:22Z</time>
      </trkpt>
      <trkpt lat="42.85568" lon="0.01421">
        <ele>1374.52</ele>
        <time>2018-03-06T08:25:40Z</time>
      </trkpt>
      <trkpt lat="42.85552" lon="0.01433">
        <ele>1377.79</ele>
        <time>2018-03-06T08:25:57Z</time>
      </trkpt>
      <trkpt lat="42.85534" lon="0.01434">
        <ele>1380.22</ele>
        <time>2018-03-06T08:26:18Z</time>
      </trkpt>
      <trkpt lat="42.85516" lon="0.01442">
        <ele>1383.25</ele>
        <time>2018-03-06T08:26:33Z</time>
      </trkpt>
      <trkpt lat="42.85499" lon="0.0145">
        <ele>1389.45</ele>
        <time>2018-03-06T08:26:55Z</time>
      </trkpt>
      <trkpt lat="42.85488" lon="0.0147">
        <ele>1392.22</ele>
        <time>2018-03-06T08:27:15Z</time>
      </trkpt>
      <trkpt lat="42.85478" lon="0.01492">
        <ele>1397.31</ele>
        <time>2018-03-06T08:27:37Z</time>
      </trkpt>
      <trkpt lat="42.85467" lon="0.01512">
        <ele>1396.51</ele>
        <time>2018-03-06T08:27:54Z</time>
      </trkpt>
      <trkpt lat="42.85464" lon="0.01536">
        <ele>1401.49</ele>
        <time>2018-03-06T08:28:15Z</time>
      </trkpt>
      <trkpt lat="42.85464" lon="0.01561">
        <ele>1403.54</ele>
        <time>2018-03-06T08:28:36Z</time>
      </trkpt>
      <trkpt lat="42.85462" lon="0.01587">
        <ele>1408.42</ele>
        <time>2018-03-06T08:28:54Z</time>
      </trkpt>
      <trkpt lat="42.85461" lon="0.01611">
        <ele>1412.52</ele>
        <time>2018-03-06T08:29:11Z</time>
      </trkpt>
      <trkpt lat="42.85465" lon="0.01635">
        <ele>1414.22</ele>
        <time>2018-03-06T08:29:31Z</time>
      </trkpt>
      <trkpt lat="42.85465" lon="0.0166">
        <ele>1415.25</ele>
        <time>2018-03-06T08:29:50Z</time>
      </trkpt>
      <trkpt lat="42.85469" lon="0.01684">
        <ele>1417.55</ele>
        <time>2018-03-06T08:30:09Z</time>
      </trkpt>
      <trkpt lat="42.85471" lon="0.01709">
        <ele>1419.58</ele>
        <time>2018-03-06T08:30:27Z</time>
      </trkpt>
      <trkpt lat="42.85473" lon="0.01733">
        <ele>1421.76</ele>
        <time>2018-03-06T08:30:45Z</time>
      </trkpt>
      <trkpt lat="42.85471" lon="0.01758">
        <ele>1420.52</ele>
        <time>2018-03-06T08:31:00Z</time>
      </trkpt>
      <trkpt lat="42.85455" lon="0.01772">
        <ele>1418.43</ele>
        <time>2018-03-06T08:31:21Z</time>
      </trkpt>
      <trkpt lat="42.8544" lon="0.01786">
        <ele>1414.61</ele>
        <time>2018-03-06T08:31:40Z</time>
      </trkpt>
      <trkpt lat="42.85429" lon="0.01806">
        <ele>1414.82</ele>
        <time>2018-03-06T08:31:59Z</time>
      </trkpt>
      <trkpt lat="42.85421" lon="0.01829">
        <ele>1414.52</ele>
        <time>2018-03-06T08:32:21Z</time>
      </trkpt>
      <trkpt lat="42.85409" lon="0.01848">
        <ele>1412.52</ele>
        <time>2018-03-06T08:32:36Z</time>
      </trkpt>
      <trkpt lat="42.85394" lon="0.01862">
        <ele>1413.78</ele>
        <time>2018-03-06T08:32:55Z</time>
      </trkpt>
      <trkpt lat="42.85382" lon="0.01881">
        <ele>1414.14</ele>
        <time>2018-03-06T08:33:11Z</time>
      </trkpt>
      <trkpt lat="42.85367" lon="0.01896">
        <ele>1414.55</ele>
        <time>2018-03-06T08:33:28Z</time>
      </trkpt>
      <trkpt lat="42.85354" lon="0.01914">
        <ele>1416.49</ele>
        <time>2018-03-06T08:33:50Z</time>
      </trkpt>
      <trkpt lat="42.85336" lon="0.01924">
        <ele>1418.46</ele>
        <time>2018-03-06T08:34:04Z</time>
      </trkpt>
      <trkpt lat="42.85324" lon="0.01942">
        <ele>1421.49</ele>
        <time>2018-03-06T08:34:29Z</time>
      </trkpt>
      <trkpt lat="42.85311" lon="0.01958">
        <ele>1425.52</ele>
        <time>2018-03-06T08:35:04Z</time>
      </trkpt>
      <trkpt lat="42.85297" lon="0.01975">
        <ele>1433.52</ele>
        <time>2018-03-06T08:44:54Z</time>
      </trkpt>
      <trkpt lat="42.85287" lon="0.01996">
        <ele>1431.52</ele>
        <time>2018-03-06T08:45:17Z</time>
      </trkpt>
      <trkpt lat="42.85281" lon="0.0202">
        <ele>1434.61</ele>
        <time>2018-03-06T08:45:40Z</time>
      </trkpt>
      <trkpt lat="42.85269" lon="0.0204">
        <ele>1436.53</ele>
        <time>2018-03-06T08:46:01Z</time>
      </trkpt>
      <trkpt lat="42.85267" lon="0.02066">
        <ele>1439.6</ele>
        <time>2018-03-06T08:46:22Z</time>
      </trkpt>
      <trkpt lat="42.85256" lon="0.02087">
        <ele>1440.44</ele>
        <time>2018-03-06T08:46:47Z</time>
      </trkpt>
      <trkpt lat="42.85247" lon="0.0211">
        <ele>1442.73</ele>
        <time>2018-03-06T08:47:11Z</time>
      </trkpt>
      <trkpt lat="42.85236" lon="0.02129">
        <ele>1443.3</ele>
        <time>2018-03-06T08:47:32Z</time>
      </trkpt>
      <trkpt lat="42.85224" lon="0.02149">
        <ele>1444.52</ele>
        <time>2018-03-06T08:47:55Z</time>
      </trkpt>
      <trkpt lat="42.85214" lon="0.02169">
        <ele>1449.51</ele>
        <time>2018-03-06T08:48:19Z</time>
      </trkpt>
      <trkpt lat="42.85201" lon="0.02187">
        <ele>1450.82</ele>
        <time>2018-03-06T08:48:43Z</time>
      </trkpt>
      <trkpt lat="42.85191" lon="0.02208">
        <ele>1455.51</ele>
        <time>2018-03-06T08:49:10Z</time>
      </trkpt>
      <trkpt lat="42.85174" lon="0.02218">
        <ele>1458.43</ele>
        <time>2018-03-06T08:49:46Z</time>
      </trkpt>
      <trkpt lat="42.85168" lon="0.02242">
        <ele>1466.13</ele>
        <time>2018-03-06T08:50:34Z</time>
      </trkpt>
      <trkpt lat="42.85163" lon="0.02267">
        <ele>1471.42</ele>
        <time>2018-03-06T08:51:02Z</time>
      </trkpt>
      <trkpt lat="42.85154" lon="0.02289">
        <ele>1474.49</ele>
        <time>2018-03-06T08:51:27Z</time>
      </trkpt>
      <trkpt lat="42.85144" lon="0.0231">
        <ele>1477.19</ele>
        <time>2018-03-06T08:51:52Z</time>
      </trkpt>
      <trkpt lat="42.8514" lon="0.02334">
        <ele>1480.55</ele>
        <time>2018-03-06T08:52:16Z</time>
      </trkpt>
      <trkpt lat="42.85128" lon="0.02355">
        <ele>1481.53</ele>
        <time>2018-03-06T08:52:50Z</time>
      </trkpt>
      <trkpt lat="42.85117" lon="0.02374">
        <ele>1487.22</ele>
        <time>2018-03-06T08:53:22Z</time>
      </trkpt>
      <trkpt lat="42.85107" lon="0.02395">
        <ele>1492.43</ele>
        <time>2018-03-06T08:53:48Z</time>
      </trkpt>
      <trkpt lat="42.85097" lon="0.02417">
        <ele>1499.49</ele>
        <time>2018-03-06T08:54:18Z</time>
      </trkpt>
      <trkpt lat="42.85086" lon="0.02437">
        <ele>1503.51</ele>
        <time>2018-03-06T08:54:46Z</time>
      </trkpt>
      <trkpt lat="42.85075" lon="0.02458">
        <ele>1506.52</ele>
        <time>2018-03-06T08:55:09Z</time>
      </trkpt>
      <trkpt lat="42.85068" lon="0.02481">
        <ele>1512.3</ele>
        <time>2018-03-06T08:55:36Z</time>
      </trkpt>
      <trkpt lat="42.85059" lon="0.02504">
        <ele>1512.49</ele>
        <time>2018-03-06T08:56:06Z</time>
      </trkpt>
      <trkpt lat="42.8505" lon="0.02526">
        <ele>1513.59</ele>
        <time>2018-03-06T08:56:33Z</time>
      </trkpt>
      <trkpt lat="42.85032" lon="0.02522">
        <ele>1524.5</ele>
        <time>2018-03-06T08:57:48Z</time>
      </trkpt>
      <trkpt lat="42.8502" lon="0.02541">
        <ele>1527.49</ele>
        <time>2018-03-06T08:58:13Z</time>
      </trkpt>
      <trkpt lat="42.8501" lon="0.02561">
        <ele>1533.51</ele>
        <time>2018-03-06T08:58:37Z</time>
      </trkpt>
      <trkpt lat="42.85002" lon="0.02585">
        <ele>1533.52</ele>
        <time>2018-03-06T08:58:57Z</time>
      </trkpt>
      <trkpt lat="42.84997" lon="0.02609">
        <ele>1536.52</ele>
        <time>2018-03-06T08:59:20Z</time>
      </trkpt>
      <trkpt lat="42.84991" lon="0.02633">
        <ele>1537.55</ele>
        <time>2018-03-06T08:59:37Z</time>
      </trkpt>
      <trkpt lat="42.84989" lon="0.02658">
        <ele>1540.41</ele>
        <time>2018-03-06T09:03:58Z</time>
      </trkpt>
      <trkpt lat="42.84983" lon="0.02682">
        <ele>1539.52</ele>
        <time>2018-03-06T09:04:10Z</time>
      </trkpt>
      <trkpt lat="42.84978" lon="0.02706">
        <ele>1539.52</ele>
        <time>2018-03-06T09:04:24Z</time>
      </trkpt>
      <trkpt lat="42.84972" lon="0.0273">
        <ele>1538.52</ele>
        <time>2018-03-06T09:04:39Z</time>
      </trkpt>
      <trkpt lat="42.84967" lon="0.02754">
        <ele>1538.52</ele>
        <time>2018-03-06T09:04:52Z</time>
      </trkpt>
      <trkpt lat="42.84959" lon="0.02778">
        <ele>1536.53</ele>
        <time>2018-03-06T09:05:07Z</time>
      </trkpt>
      <trkpt lat="42.84951" lon="0.028">
        <ele>1535.82</ele>
        <time>2018-03-06T09:05:18Z</time>
      </trkpt>
      <trkpt lat="42.84944" lon="0.02825">
        <ele>1533.61</ele>
        <time>2018-03-06T09:05:29Z</time>
      </trkpt>
      <trkpt lat="42.8494" lon="0.0285">
        <ele>1528.53</ele>
        <time>2018-03-06T09:05:45Z</time>
      </trkpt>
      <trkpt lat="42.84933" lon="0.02874">
        <ele>1523.43</ele>
        <time>2018-03-06T09:06:05Z</time>
      </trkpt>
      <trkpt lat="42.84921" lon="0.02892">
        <ele>1523.61</ele>
        <time>2018-03-06T09:06:25Z</time>
      </trkpt>
      <trkpt lat="42.84906" lon="0.02908">
        <ele>1521.52</ele>
        <time>2018-03-06T09:06:44Z</time>
      </trkpt>
      <trkpt lat="42.84899" lon="0.02932">
        <ele>1520.52</ele>
        <time>2018-03-06T09:07:01Z</time>
      </trkpt>
      <trkpt lat="42.84894" lon="0.02957">
        <ele>1520.52</ele>
        <time>2018-03-06T09:07:18Z</time>
      </trkpt>
      <trkpt lat="42.8489" lon="0.02982">
        <ele>1521.73</ele>
        <time>2018-03-06T09:07:46Z</time>
      </trkpt>
      <trkpt lat="42.84887" lon="0.03007">
        <ele>1520.52</ele>
        <time>2018-03-06T09:08:12Z</time>
      </trkpt>
      <trkpt lat="42.84888" lon="0.03032">
        <ele>1521.24</ele>
        <time>2018-03-06T09:08:46Z</time>
      </trkpt>
      <trkpt lat="42.84894" lon="0.03055">
        <ele>1518.52</ele>
        <time>2018-03-06T09:09:31Z</time>
      </trkpt>
      <trkpt lat="42.84902" lon="0.03079">
        <ele>1517.53</ele>
        <time>2018-03-06T09:09:49Z</time>
      </trkpt>
      <trkpt lat="42.84909" lon="0.03102">
        <ele>1518.61</ele>
        <time>2018-03-06T09:10:05Z</time>
      </trkpt>
      <trkpt lat="42.84912" lon="0.03126">
        <ele>1519.29</ele>
        <time>2018-03-06T09:10:21Z</time>
      </trkpt>
      <trkpt lat="42.84915" lon="0.03151">
        <ele>1520.52</ele>
        <time>2018-03-06T09:10:39Z</time>
      </trkpt>
      <trkpt lat="42.84914" lon="0.03176">
        <ele>1525.21</ele>
        <time>2018-03-06T09:11:09Z</time>
      </trkpt>
      <trkpt lat="42.84921" lon="0.032">
        <ele>1524.52</ele>
        <time>2018-03-06T09:12:29Z</time>
      </trkpt>
      <trkpt lat="42.8493" lon="0.03223">
        <ele>1526.52</ele>
        <time>2018-03-06T09:12:51Z</time>
      </trkpt>
      <trkpt lat="42.84938" lon="0.03245">
        <ele>1530.21</ele>
        <time>2018-03-06T09:13:12Z</time>
      </trkpt>
      <trkpt lat="42.84944" lon="0.03268">
        <ele>1533.52</ele>
        <time>2018-03-06T09:13:36Z</time>
      </trkpt>
      <trkpt lat="42.84949" lon="0.03293">
        <ele>1533.5</ele>
        <time>2018-03-06T09:14:00Z</time>
      </trkpt>
      <trkpt lat="42.84954" lon="0.03318">
        <ele>1535.55</ele>
        <time>2018-03-06T09:14:23Z</time>
      </trkpt>
      <trkpt lat="42.84965" lon="0.03338">
        <ele>1536.49</ele>
        <time>2018-03-06T09:14:48Z</time>
      </trkpt>
      <trkpt lat="42.84966" lon="0.03363">
        <ele>1542.13</ele>
        <time>2018-03-06T09:15:11Z</time>
      </trkpt>
      <trkpt lat="42.8497" lon="0.03389">
        <ele>1543.52</ele>
        <time>2018-03-06T09:15:34Z</time>
      </trkpt>
      <trkpt lat="42.84972" lon="0.03414">
        <ele>1542.52</ele>
        <time>2018-03-06T09:16:01Z</time>
      </trkpt>
      <trkpt lat="42.84968" lon="0.03439">
        <ele>1540.81</ele>
        <time>2018-03-06T09:16:24Z</time>
      </trkpt>
      <trkpt lat="42.84971" lon="0.03464">
        <ele>1549.51</ele>
        <time>2018-03-06T09:16:47Z</time>
      </trkpt>
      <trkpt lat="42.84967" lon="0.03489">
        <ele>1550.22</ele>
        <time>2018-03-06T09:17:06Z</time>
      </trkpt>
      <trkpt lat="42.84965" lon="0.03513">
        <ele>1554.22</ele>
        <time>2018-03-06T09:17:27Z</time>
      </trkpt>
      <trkpt lat="42.84956" lon="0.03536">
        <ele>1559.52</ele>
        <time>2018-03-06T09:17:47Z</time>
      </trkpt>
      <trkpt lat="42.84951" lon="0.0356">
        <ele>1564.51</ele>
        <time>2018-03-06T09:18:06Z</time>
      </trkpt>
      <trkpt lat="42.84946" lon="0.03585">
        <ele>1561.75</ele>
        <time>2018-03-06T09:18:39Z</time>
      </trkpt>
      <trkpt lat="42.84944" lon="0.03609">
        <ele>1561.8</ele>
        <time>2018-03-06T09:19:03Z</time>
      </trkpt>
      <trkpt lat="42.84951" lon="0.03632">
        <ele>1564.45</ele>
        <time>2018-03-06T09:19:31Z</time>
      </trkpt>
      <trkpt lat="42.84953" lon="0.03657">
        <ele>1566.22</ele>
        <time>2018-03-06T09:19:51Z</time>
      </trkpt>
      <trkpt lat="42.84946" lon="0.03681">
        <ele>1568.5</ele>
        <time>2018-03-06T09:20:14Z</time>
      </trkpt>
      <trkpt lat="42.84938" lon="0.03703">
        <ele>1571.52</ele>
        <time>2018-03-06T09:20:39Z</time>
      </trkpt>
      <trkpt lat="42.84931" lon="0.03727">
        <ele>1571.55</ele>
        <time>2018-03-06T09:21:02Z</time>
      </trkpt>
      <trkpt lat="42.84924" lon="0.03751">
        <ele>1574.52</ele>
        <time>2018-03-06T09:21:25Z</time>
      </trkpt>
      <trkpt lat="42.84925" lon="0.03775">
        <ele>1574.22</ele>
        <time>2018-03-06T09:21:50Z</time>
      </trkpt>
      <trkpt lat="42.84925" lon="0.038">
        <ele>1571.61</ele>
        <time>2018-03-06T09:22:19Z</time>
      </trkpt>
      <trkpt lat="42.84932" lon="0.03823">
        <ele>1575.2</ele>
        <time>2018-03-06T09:22:46Z</time>
      </trkpt>
      <trkpt lat="42.84931" lon="0.03848">
        <ele>1581.22</ele>
        <time>2018-03-06T09:23:15Z</time>
      </trkpt>
      <trkpt lat="42.84928" lon="0.03873">
        <ele>1590.41</ele>
        <time>2018-03-06T09:23:52Z</time>
      </trkpt>
      <trkpt lat="42.84919" lon="0.03895">
        <ele>1597.52</ele>
        <time>2018-03-06T09:25:39Z</time>
      </trkpt>
      <trkpt lat="42.84901" lon="0.03902">
        <ele>1615.34</ele>
        <time>2018-03-06T09:27:10Z</time>
      </trkpt>
      <trkpt lat="42.84896" lon="0.03925">
        <ele>1618.61</ele>
        <time>2018-03-06T09:28:30Z</time>
      </trkpt>
      <trkpt lat="42.84891" lon="0.03949">
        <ele>1624.5</ele>
        <time>2018-03-06T09:29:24Z</time>
      </trkpt>
      <trkpt lat="42.84888" lon="0.03974">
        <ele>1630.13</ele>
        <time>2018-03-06T09:30:00Z</time>
      </trkpt>
      <trkpt lat="42.84871" lon="0.03981">
        <ele>1642.03</ele>
        <time>2018-03-06T09:30:54Z</time>
      </trkpt>
      <trkpt lat="42.84864" lon="0.04004">
        <ele>1648.13</ele>
        <time>2018-03-06T09:31:32Z</time>
      </trkpt>
      <trkpt lat="42.8486" lon="0.04028">
        <ele>1651.72</ele>
        <time>2018-03-06T09:32:08Z</time>
      </trkpt>
      <trkpt lat="42.84855" lon="0.04052">
        <ele>1656.2</ele>
        <time>2018-03-06T09:32:36Z</time>
      </trkpt>
      <trkpt lat="42.84858" lon="0.04077">
        <ele>1662.93</ele>
        <time>2018-03-06T09:33:06Z</time>
      </trkpt>
      <trkpt lat="42.8487" lon="0.04097">
        <ele>1659.61</ele>
        <time>2018-03-06T09:38:29Z</time>
      </trkpt>
      <trkpt lat="42.8487" lon="0.04123">
        <ele>1654.46</ele>
        <time>2018-03-06T09:39:57Z</time>
      </trkpt>
      <trkpt lat="42.84864" lon="0.04146">
        <ele>1660.52</ele>
        <time>2018-03-06T09:40:35Z</time>
      </trkpt>
      <trkpt lat="42.84858" lon="0.04169">
        <ele>1664.76</ele>
        <time>2018-03-06T09:41:05Z</time>
      </trkpt>
      <trkpt lat="42.84853" lon="0.04194">
        <ele>1671.16</ele>
        <time>2018-03-06T09:41:40Z</time>
      </trkpt>
      <trkpt lat="42.84846" lon="0.04217">
        <ele>1678.42</ele>
        <time>2018-03-06T09:42:17Z</time>
      </trkpt>
      <trkpt lat="42.84831" lon="0.04232">
        <ele>1684.52</ele>
        <time>2018-03-06T09:42:53Z</time>
      </trkpt>
      <trkpt lat="42.84835" lon="0.04257">
        <ele>1690.51</ele>
        <time>2018-03-06T09:44:10Z</time>
      </trkpt>
      <trkpt lat="42.84836" lon="0.04282">
        <ele>1696.4</ele>
        <time>2018-03-06T09:44:38Z</time>
      </trkpt>
      <trkpt lat="42.84821" lon="0.04295">
        <ele>1704.22</ele>
        <time>2018-03-06T09:45:25Z</time>
      </trkpt>
      <trkpt lat="42.84807" lon="0.04311">
        <ele>1713.42</ele>
        <time>2018-03-06T09:46:07Z</time>
      </trkpt>
      <trkpt lat="42.84792" lon="0.04297">
        <ele>1716.61</ele>
        <time>2018-03-06T09:48:03Z</time>
      </trkpt>
      <trkpt lat="42.84777" lon="0.04313">
        <ele>1727.23</ele>
        <time>2018-03-06T09:49:36Z</time>
      </trkpt>
      <trkpt lat="42.84763" lon="0.04298">
        <ele>1733.73</ele>
        <time>2018-03-06T09:50:22Z</time>
      </trkpt>
      <trkpt lat="42.8476" lon="0.04323">
        <ele>1738.79</ele>
        <time>2018-03-06T09:51:26Z</time>
      </trkpt>
      <trkpt lat="42.84757" lon="0.04348">
        <ele>1739.43</ele>
        <time>2018-03-06T09:52:00Z</time>
      </trkpt>
      <trkpt lat="42.84743" lon="0.04364">
        <ele>1747.51</ele>
        <time>2018-03-06T09:52:43Z</time>
      </trkpt>
      <trkpt lat="42.8473" lon="0.04382">
        <ele>1759.52</ele>
        <time>2018-03-06T09:53:27Z</time>
      </trkpt>
      <trkpt lat="42.84724" lon="0.04406">
        <ele>1763.49</ele>
        <time>2018-03-06T09:53:49Z</time>
      </trkpt>
      <trkpt lat="42.84728" lon="0.0443">
        <ele>1764.52</ele>
        <time>2018-03-06T09:54:22Z</time>
      </trkpt>
      <trkpt lat="42.84713" lon="0.04445">
        <ele>1773.3</ele>
        <time>2018-03-06T09:54:52Z</time>
      </trkpt>
      <trkpt lat="42.847" lon="0.04462">
        <ele>1781.21</ele>
        <time>2018-03-06T09:55:23Z</time>
      </trkpt>
      <trkpt lat="42.84685" lon="0.04476">
        <ele>1790.51</ele>
        <time>2018-03-06T09:56:09Z</time>
      </trkpt>
      <trkpt lat="42.84681" lon="0.04501">
        <ele>1787.8</ele>
        <time>2018-03-06T09:56:37Z</time>
      </trkpt>
      <trkpt lat="42.84675" lon="0.04524">
        <ele>1790.52</ele>
        <time>2018-03-06T09:57:03Z</time>
      </trkpt>
      <trkpt lat="42.84692" lon="0.04532">
        <ele>1793.52</ele>
        <time>2018-03-06T09:57:31Z</time>
      </trkpt>
      <trkpt lat="42.84697" lon="0.04557">
        <ele>1796.4</ele>
        <time>2018-03-06T09:57:56Z</time>
      </trkpt>
      <trkpt lat="42.84693" lon="0.04581">
        <ele>1800.42</ele>
        <time>2018-03-06T09:58:19Z</time>
      </trkpt>
      <trkpt lat="42.84684" lon="0.04603">
        <ele>1805.22</ele>
        <time>2018-03-06T09:58:41Z</time>
      </trkpt>
      <trkpt lat="42.84678" lon="0.04627">
        <ele>1818.52</ele>
        <time>2018-03-06T10:06:52Z</time>
      </trkpt>
      <trkpt lat="42.84671" lon="0.04651">
        <ele>1821.49</ele>
        <time>2018-03-06T10:07:13Z</time>
      </trkpt>
      <trkpt lat="42.84671" lon="0.04675">
        <ele>1821.85</ele>
        <time>2018-03-06T10:07:39Z</time>
      </trkpt>
      <trkpt lat="42.84685" lon="0.04691">
        <ele>1820.53</ele>
        <time>2018-03-06T10:08:09Z</time>
      </trkpt>
      <trkpt lat="42.847" lon="0.04705">
        <ele>1822.52</ele>
        <time>2018-03-06T10:08:30Z</time>
      </trkpt>
      <trkpt lat="42.84717" lon="0.04717">
        <ele>1825.5</ele>
        <time>2018-03-06T10:08:53Z</time>
      </trkpt>
      <trkpt lat="42.84712" lon="0.04741">
        <ele>1842.49</ele>
        <time>2018-03-06T10:10:01Z</time>
      </trkpt>
      <trkpt lat="42.84695" lon="0.04749">
        <ele>1850.62</ele>
        <time>2018-03-06T10:10:26Z</time>
      </trkpt>
      <trkpt lat="42.84686" lon="0.0477">
        <ele>1850.49</ele>
        <time>2018-03-06T10:11:03Z</time>
      </trkpt>
      <trkpt lat="42.84684" lon="0.04795">
        <ele>1859.53</ele>
        <time>2018-03-06T10:11:41Z</time>
      </trkpt>
      <trkpt lat="42.84675" lon="0.04816">
        <ele>1866.52</ele>
        <time>2018-03-06T10:12:20Z</time>
      </trkpt>
      <trkpt lat="42.8466" lon="0.0483">
        <ele>1874.43</ele>
        <time>2018-03-06T10:13:00Z</time>
      </trkpt>
      <trkpt lat="42.84656" lon="0.04854">
        <ele>1879.22</ele>
        <time>2018-03-06T10:13:27Z</time>
      </trkpt>
      <trkpt lat="42.84639" lon="0.04861">
        <ele>1886.2</ele>
        <time>2018-03-06T10:14:11Z</time>
      </trkpt>
      <trkpt lat="42.84624" lon="0.04876">
        <ele>1892.51</ele>
        <time>2018-03-06T10:14:56Z</time>
      </trkpt>
      <trkpt lat="42.8461" lon="0.04891">
        <ele>1899.52</ele>
        <time>2018-03-06T10:15:24Z</time>
      </trkpt>
      <trkpt lat="42.84607" lon="0.04867">
        <ele>1894.52</ele>
        <time>2018-03-06T10:16:54Z</time>
      </trkpt>
      <trkpt lat="42.84591" lon="0.0488">
        <ele>1911.51</ele>
        <time>2018-03-06T10:17:51Z</time>
      </trkpt>
      <trkpt lat="42.84576" lon="0.04894">
        <ele>1920.19</ele>
        <time>2018-03-06T10:18:18Z</time>
      </trkpt>
      <trkpt lat="42.84561" lon="0.04907">
        <ele>1924.51</ele>
        <time>2018-03-06T10:18:43Z</time>
      </trkpt>
      <trkpt lat="42.84547" lon="0.04923">
        <ele>1929.51</ele>
        <time>2018-03-06T10:19:07Z</time>
      </trkpt>
      <trkpt lat="42.84531" lon="0.04938">
        <ele>1927.66</ele>
        <time>2018-03-06T10:19:56Z</time>
      </trkpt>
      <trkpt lat="42.84514" lon="0.04945">
        <ele>1926.24</ele>
        <time>2018-03-06T10:20:22Z</time>
      </trkpt>
      <trkpt lat="42.84496" lon="0.0495">
        <ele>1925.52</ele>
        <time>2018-03-06T10:20:43Z</time>
      </trkpt>
      <trkpt lat="42.84482" lon="0.04967">
        <ele>1919.52</ele>
        <time>2018-03-06T10:23:42Z</time>
      </trkpt>
      <trkpt lat="42.84473" lon="0.04989">
        <ele>1920.52</ele>
        <time>2018-03-06T10:24:08Z</time>
      </trkpt>
      <trkpt lat="42.84462" lon="0.0501">
        <ele>1927.48</ele>
        <time>2018-03-06T10:24:28Z</time>
      </trkpt>
      <trkpt lat="42.84454" lon="0.05032">
        <ele>1930.52</ele>
        <time>2018-03-06T10:24:50Z</time>
      </trkpt>
      <trkpt lat="42.84444" lon="0.05054">
        <ele>1933.51</ele>
        <time>2018-03-06T10:25:13Z</time>
      </trkpt>
      <trkpt lat="42.84432" lon="0.05073">
        <ele>1936.52</ele>
        <time>2018-03-06T10:25:35Z</time>
      </trkpt>
      <trkpt lat="42.84426" lon="0.05097">
        <ele>1940.52</ele>
        <time>2018-03-06T10:26:05Z</time>
      </trkpt>
      <trkpt lat="42.84415" lon="0.05117">
        <ele>1940.52</ele>
        <time>2018-03-06T10:26:17Z</time>
      </trkpt>
      <trkpt lat="42.84404" lon="0.05137">
        <ele>1942.59</ele>
        <time>2018-03-06T10:26:31Z</time>
      </trkpt>
      <trkpt lat="42.84392" lon="0.05156">
        <ele>1941.55</ele>
        <time>2018-03-06T10:26:44Z</time>
      </trkpt>
      <trkpt lat="42.84376" lon="0.05169">
        <ele>1940.61</ele>
        <time>2018-03-06T10:27:04Z</time>
      </trkpt>
      <trkpt lat="42.8436" lon="0.05182">
        <ele>1939.52</ele>
        <time>2018-03-06T10:27:16Z</time>
      </trkpt>
      <trkpt lat="42.84346" lon="0.05199">
        <ele>1939.52</ele>
        <time>2018-03-06T10:27:23Z</time>
      </trkpt>
      <trkpt lat="42.84335" lon="0.0522">
        <ele>1937.82</ele>
        <time>2018-03-06T10:27:36Z</time>
      </trkpt>
      <trkpt lat="42.84323" lon="0.05238">
        <ele>1935.55</ele>
        <time>2018-03-06T10:27:50Z</time>
      </trkpt>
      <trkpt lat="42.84305" lon="0.05244">
        <ele>1934.31</ele>
        <time>2018-03-06T10:28:08Z</time>
      </trkpt>
      <trkpt lat="42.84287" lon="0.05247">
        <ele>1930.52</ele>
        <time>2018-03-06T10:28:36Z</time>
      </trkpt>
      <trkpt lat="42.84269" lon="0.05253">
        <ele>1931.85</ele>
        <time>2018-03-06T10:28:57Z</time>
      </trkpt>
      <trkpt lat="42.84254" lon="0.05265">
        <ele>1929.52</ele>
        <time>2018-03-06T10:29:18Z</time>
      </trkpt>
      <trkpt lat="42.84236" lon="0.0527">
        <ele>1929.54</ele>
        <time>2018-03-06T10:29:37Z</time>
      </trkpt>
      <trkpt lat="42.84221" lon="0.05284">
        <ele>1930.13</ele>
        <time>2018-03-06T10:29:54Z</time>
      </trkpt>
      <trkpt lat="42.84207" lon="0.053">
        <ele>1925.91</ele>
        <time>2018-03-06T10:30:06Z</time>
      </trkpt>
      <trkpt lat="42.84201" lon="0.05324">
        <ele>1917.55</ele>
        <time>2018-03-06T10:30:25Z</time>
      </trkpt>
      <trkpt lat="42.84198" lon="0.05349">
        <ele>1911.53</ele>
        <time>2018-03-06T10:30:44Z</time>
      </trkpt>
      <trkpt lat="42.84194" lon="0.05374">
        <ele>1912.23</ele>
        <time>2018-03-06T10:31:04Z</time>
      </trkpt>
      <trkpt lat="42.84187" lon="0.05398">
        <ele>1910.14</ele>
        <time>2018-03-06T10:31:24Z</time>
      </trkpt>
      <trkpt lat="42.8417" lon="0.05403">
        <ele>1909.7</ele>
        <time>2018-03-06T10:32:01Z</time>
      </trkpt>
      <trkpt lat="42.84153" lon="0.05414">
        <ele>1898.45</ele>
        <time>2018-03-06T10:39:00Z</time>
      </trkpt>
      <trkpt lat="42.84136" lon="0.05421">
        <ele>1902.43</ele>
        <time>2018-03-06T10:39:34Z</time>
      </trkpt>
      <trkpt lat="42.84119" lon="0.05432">
        <ele>1908.41</ele>
        <time>2018-03-06T10:40:05Z</time>
      </trkpt>
      <trkpt lat="42.84112" lon="0.05455">
        <ele>1907.22</ele>
        <time>2018-03-06T10:40:41Z</time>
      </trkpt>
      <trkpt lat="42.84109" lon="0.0548">
        <ele>1908.49</ele>
        <time>2018-03-06T10:41:08Z</time>
      </trkpt>
      <trkpt lat="42.84093" lon="0.05493">
        <ele>1911.43</ele>
        <time>2018-03-06T10:41:35Z</time>
      </trkpt>
      <trkpt lat="42.84078" lon="0.05505">
        <ele>1915.7</ele>
        <time>2018-03-06T10:42:04Z</time>
      </trkpt>
      <trkpt lat="42.84079" lon="0.0553">
        <ele>1922.52</ele>
        <time>2018-03-06T10:42:49Z</time>
      </trkpt>
      <trkpt lat="42.84062" lon="0.05539">
        <ele>1924.82</ele>
        <time>2018-03-06T10:43:12Z</time>
      </trkpt>
      <trkpt lat="42.84071" lon="0.0556">
        <ele>1932.49</ele>
        <time>2018-03-06T10:44:06Z</time>
      </trkpt>
      <trkpt lat="42.84056" lon="0.05574">
        <ele>1937.4</ele>
        <time>2018-03-06T10:44:31Z</time>
      </trkpt>
      <trkpt lat="42.84066" lon="0.05596">
        <ele>1940.52</ele>
        <time>2018-03-06T10:45:33Z</time>
      </trkpt>
      <trkpt lat="42.84063" lon="0.05621">
        <ele>1951.23</ele>
        <time>2018-03-06T10:46:21Z</time>
      </trkpt>
      <trkpt lat="42.84045" lon="0.05626">
        <ele>1963.52</ele>
        <time>2018-03-06T10:46:54Z</time>
      </trkpt>
      <trkpt lat="42.84061" lon="0.05639">
        <ele>1960.19</ele>
        <time>2018-03-06T10:47:30Z</time>
      </trkpt>
      <trkpt lat="42.84045" lon="0.05653">
        <ele>1968.17</ele>
        <time>2018-03-06T10:48:10Z</time>
      </trkpt>
      <trkpt lat="42.8403" lon="0.05667">
        <ele>1970.56</ele>
        <time>2018-03-06T10:49:36Z</time>
      </trkpt>
      <trkpt lat="42.84023" lon="0.0569">
        <ele>1977.82</ele>
        <time>2018-03-06T10:50:55Z</time>
      </trkpt>
      <trkpt lat="42.84009" lon="0.05707">
        <ele>1992.52</ele>
        <time>2018-03-06T10:51:53Z</time>
      </trkpt>
      <trkpt lat="42.84008" lon="0.05731">
        <ele>2000.9</ele>
        <time>2018-03-06T10:52:54Z</time>
      </trkpt>
      <trkpt lat="42.83991" lon="0.05743">
        <ele>2004.21</ele>
        <time>2018-03-06T10:53:55Z</time>
      </trkpt>
      <trkpt lat="42.83998" lon="0.05766">
        <ele>2010.1</ele>
        <time>2018-03-06T10:54:30Z</time>
      </trkpt>
      <trkpt lat="42.83989" lon="0.05788">
        <ele>2025.12</ele>
        <time>2018-03-06T10:55:20Z</time>
      </trkpt>
      <trkpt lat="42.83973" lon="0.05799">
        <ele>2032.51</ele>
        <time>2018-03-06T10:55:47Z</time>
      </trkpt>
      <trkpt lat="42.8396" lon="0.05816">
        <ele>2029.52</ele>
        <time>2018-03-06T10:56:21Z</time>
      </trkpt>
      <trkpt lat="42.83943" lon="0.05828">
        <ele>2042.51</ele>
        <time>2018-03-06T10:56:55Z</time>
      </trkpt>
      <trkpt lat="42.83929" lon="0.05845">
        <ele>2046.5</ele>
        <time>2018-03-06T10:57:21Z</time>
      </trkpt>
      <trkpt lat="42.83923" lon="0.05869">
        <ele>2045.73</ele>
        <time>2018-03-06T10:57:58Z</time>
      </trkpt>
      <trkpt lat="42.83917" lon="0.05892">
        <ele>2048.25</ele>
        <time>2018-03-06T10:58:25Z</time>
      </trkpt>
      <trkpt lat="42.83904" lon="0.05909">
        <ele>2055.34</ele>
        <time>2018-03-06T10:58:52Z</time>
      </trkpt>
      <trkpt lat="42.83892" lon="0.05929">
        <ele>2061.53</ele>
        <time>2018-03-06T10:59:22Z</time>
      </trkpt>
      <trkpt lat="42.83879" lon="0.0595">
        <ele>2069.22</ele>
        <time>2018-03-06T10:59:57Z</time>
      </trkpt>
      <trkpt lat="42.83866" lon="0.05968">
        <ele>2074.15</ele>
        <time>2018-03-06T11:00:35Z</time>
      </trkpt>
      <trkpt lat="42.8385" lon="0.0598">
        <ele>2083.52</ele>
        <time>2018-03-06T11:05:47Z</time>
      </trkpt>
      <trkpt lat="42.83835" lon="0.05994">
        <ele>2082.22</ele>
        <time>2018-03-06T11:06:16Z</time>
      </trkpt>
      <trkpt lat="42.8382" lon="0.06009">
        <ele>2088.2</ele>
        <time>2018-03-06T11:06:42Z</time>
      </trkpt>
      <trkpt lat="42.83807" lon="0.06026">
        <ele>2089.53</ele>
        <time>2018-03-06T11:07:08Z</time>
      </trkpt>
      <trkpt lat="42.83796" lon="0.06046">
        <ele>2088.43</ele>
        <time>2018-03-06T11:07:44Z</time>
      </trkpt>
      <trkpt lat="42.83786" lon="0.06067">
        <ele>2091.37</ele>
        <time>2018-03-06T11:08:20Z</time>
      </trkpt>
      <trkpt lat="42.83779" lon="0.0609">
        <ele>2091.41</ele>
        <time>2018-03-06T11:08:46Z</time>
      </trkpt>
      <trkpt lat="42.83761" lon="0.06093">
        <ele>2096.52</ele>
        <time>2018-03-06T11:09:20Z</time>
      </trkpt>
      <trkpt lat="42.83755" lon="0.0607">
        <ele>2101.41</ele>
        <time>2018-03-06T11:09:55Z</time>
      </trkpt>
      <trkpt lat="42.8374" lon="0.06085">
        <ele>2105.22</ele>
        <time>2018-03-06T11:10:45Z</time>
      </trkpt>
      <trkpt lat="42.83725" lon="0.06098">
        <ele>2108.22</ele>
        <time>2018-03-06T11:11:08Z</time>
      </trkpt>
      <trkpt lat="42.83717" lon="0.06121">
        <ele>2119.22</ele>
        <time>2018-03-06T11:11:43Z</time>
      </trkpt>
      <trkpt lat="42.83699" lon="0.06127">
        <ele>2126.4</ele>
        <time>2018-03-06T11:12:43Z</time>
      </trkpt>
      <trkpt lat="42.83704" lon="0.06151">
        <ele>2132.22</ele>
        <time>2018-03-06T11:13:16Z</time>
      </trkpt>
      <trkpt lat="42.83692" lon="0.0617">
        <ele>2135.51</ele>
        <time>2018-03-06T11:14:04Z</time>
      </trkpt>
      <trkpt lat="42.83678" lon="0.06187">
        <ele>2141.5</ele>
        <time>2018-03-06T11:14:56Z</time>
      </trkpt>
      <trkpt lat="42.8367" lon="0.0621">
        <ele>2152.41</ele>
        <time>2018-03-06T11:15:39Z</time>
      </trkpt>
      <trkpt lat="42.83656" lon="0.06225">
        <ele>2158.44</ele>
        <time>2018-03-06T11:16:08Z</time>
      </trkpt>
      <trkpt lat="42.83649" lon="0.06248">
        <ele>2160.62</ele>
        <time>2018-03-06T11:16:39Z</time>
      </trkpt>
      <trkpt lat="42.83642" lon="0.06272">
        <ele>2166.54</ele>
        <time>2018-03-06T11:17:07Z</time>
      </trkpt>
      <trkpt lat="42.83637" lon="0.06296">
        <ele>2168.79</ele>
        <time>2018-03-06T11:17:36Z</time>
      </trkpt>
      <trkpt lat="42.83634" lon="0.0632">
        <ele>2173.92</ele>
        <time>2018-03-06T11:18:25Z</time>
      </trkpt>
      <trkpt lat="42.83616" lon="0.06326">
        <ele>2169.71</ele>
        <time>2018-03-06T11:18:52Z</time>
      </trkpt>
      <trkpt lat="42.83598" lon="0.06325">
        <ele>2166.21</ele>
        <time>2018-03-06T11:19:26Z</time>
      </trkpt>
      <trkpt lat="42.83579" lon="0.0632">
        <ele>2177.18</ele>
        <time>2018-03-06T11:19:46Z</time>
      </trkpt>
      <trkpt lat="42.83592" lon="0.06338">
        <ele>2181.22</ele>
        <time>2018-03-06T11:20:19Z</time>
      </trkpt>
      <trkpt lat="42.83601" lon="0.06363">
        <ele>2192.82</ele>
        <time>2018-03-06T11:20:58Z</time>
      </trkpt>
      <trkpt lat="42.83591" lon="0.06384">
        <ele>2196.52</ele>
        <time>2018-03-06T11:21:27Z</time>
      </trkpt>
      <trkpt lat="42.83574" lon="0.06395">
        <ele>2200.82</ele>
        <time>2018-03-06T11:21:55Z</time>
      </trkpt>
      <trkpt lat="42.83556" lon="0.06396">
        <ele>2199.53</ele>
        <time>2018-03-06T11:22:19Z</time>
      </trkpt>
      <trkpt lat="42.83561" lon="0.0642">
        <ele>2215.21</ele>
        <time>2018-03-06T11:24:15Z</time>
      </trkpt>
      <trkpt lat="42.83568" lon="0.06442">
        <ele>2218.65</ele>
        <time>2018-03-06T11:24:50Z</time>
      </trkpt>
      <trkpt lat="42.83565" lon="0.06468">
        <ele>2220.22</ele>
        <time>2018-03-06T11:25:49Z</time>
      </trkpt>
      <trkpt lat="42.83552" lon="0.06486">
        <ele>2225.43</ele>
        <time>2018-03-06T11:26:17Z</time>
      </trkpt>
      <trkpt lat="42.83538" lon="0.06503">
        <ele>2230.28</ele>
        <time>2018-03-06T11:26:47Z</time>
      </trkpt>
      <trkpt lat="42.83522" lon="0.06514">
        <ele>2233.53</ele>
        <time>2018-03-06T11:27:14Z</time>
      </trkpt>
      <trkpt lat="42.8354" lon="0.06519">
        <ele>2238.52</ele>
        <time>2018-03-06T11:28:00Z</time>
      </trkpt>
      <trkpt lat="42.83534" lon="0.06542">
        <ele>2242.61</ele>
        <time>2018-03-06T11:28:50Z</time>
      </trkpt>
      <trkpt lat="42.83516" lon="0.06549">
        <ele>2245.52</ele>
        <time>2018-03-06T11:29:26Z</time>
      </trkpt>
      <trkpt lat="42.83512" lon="0.06574">
        <ele>2260.51</ele>
        <time>2018-03-06T11:30:59Z</time>
      </trkpt>
      <trkpt lat="42.83494" lon="0.06581">
        <ele>2263.13</ele>
        <time>2018-03-06T11:31:27Z</time>
      </trkpt>
      <trkpt lat="42.83473" lon="0.0658">
        <ele>2262.51</ele>
        <time>2018-03-06T11:31:54Z</time>
      </trkpt>
      <trkpt lat="42.83455" lon="0.06583">
        <ele>2263.46</ele>
        <time>2018-03-06T11:32:12Z</time>
      </trkpt>
      <trkpt lat="42.83471" lon="0.06594">
        <ele>2272.6</ele>
        <time>2018-03-06T11:32:52Z</time>
      </trkpt>
      <trkpt lat="42.83486" lon="0.06608">
        <ele>2281.21</ele>
        <time>2018-03-06T11:33:29Z</time>
      </trkpt>
      <trkpt lat="42.83474" lon="0.06627">
        <ele>2282.85</ele>
        <time>2018-03-06T11:34:13Z</time>
      </trkpt>
      <trkpt lat="42.83492" lon="0.06635">
        <ele>2295.51</ele>
        <time>2018-03-06T11:35:23Z</time>
      </trkpt>
      <trkpt lat="42.83478" lon="0.06652">
        <ele>2298.53</ele>
        <time>2018-03-06T11:36:01Z</time>
      </trkpt>
      <trkpt lat="42.83496" lon="0.06662">
        <ele>2303.53</ele>
        <time>2018-03-06T11:36:50Z</time>
      </trkpt>
      <trkpt lat="42.83484" lon="0.06681">
        <ele>2307.52</ele>
        <time>2018-03-06T11:37:36Z</time>
      </trkpt>
      <trkpt lat="42.83466" lon="0.06685">
        <ele>2306.23</ele>
        <time>2018-03-06T11:38:10Z</time>
      </trkpt>
      <trkpt lat="42.83456" lon="0.06706">
        <ele>2313.52</ele>
        <time>2018-03-06T11:39:28Z</time>
      </trkpt>
      <trkpt lat="42.83439" lon="0.06717">
        <ele>2317.5</ele>
        <time>2018-03-06T11:39:50Z</time>
      </trkpt>
      <trkpt lat="42.83426" lon="0.06734">
        <ele>2324.43</ele>
        <time>2018-03-06T11:41:15Z</time>
      </trkpt>
      <trkpt lat="42.8341" lon="0.06745">
        <ele>2331.99</ele>
        <time>2018-03-06T11:41:55Z</time>
      </trkpt>
      <trkpt lat="42.83393" lon="0.06758">
        <ele>2328.22</ele>
        <time>2018-03-06T11:42:18Z</time>
      </trkpt>
      <trkpt lat="42.83377" lon="0.0677">
        <ele>2326.28</ele>
        <time>2018-03-06T11:43:03Z</time>
      </trkpt>
      <trkpt lat="42.83359" lon="0.06777">
        <ele>2331.47</ele>
        <time>2018-03-06T11:43:36Z</time>
      </trkpt>
      <trkpt lat="42.83343" lon="0.06789">
        <ele>2334.22</ele>
        <time>2018-03-06T11:44:06Z</time>
      </trkpt>
      <trkpt lat="42.83327" lon="0.06801">
        <ele>2336.47</ele>
        <time>2018-03-06T11:44:32Z</time>
      </trkpt>
      <trkpt lat="42.83311" lon="0.06811">
        <ele>2341.53</ele>
        <time>2018-03-06T11:44:57Z</time>
      </trkpt>
      <trkpt lat="42.83293" lon="0.06821">
        <ele>2345.27</ele>
        <time>2018-03-06T11:45:30Z</time>
      </trkpt>
      <trkpt lat="42.83278" lon="0.06833">
        <ele>2339.46</ele>
        <time>2018-03-06T11:45:53Z</time>
      </trkpt>
      <trkpt lat="42.8326" lon="0.06824">
        <ele>2373.48</ele>
        <time>2018-03-06T11:47:15Z</time>
      </trkpt>
      <trkpt lat="42.83242" lon="0.06822">
        <ele>2381.92</ele>
        <time>2018-03-06T11:47:47Z</time>
      </trkpt>
      <trkpt lat="42.83224" lon="0.06825">
        <ele>2396.7</ele>
        <time>2018-03-06T11:48:24Z</time>
      </trkpt>
      <trkpt lat="42.83207" lon="0.06835">
        <ele>2402.12</ele>
        <time>2018-03-06T11:49:16Z</time>
      </trkpt>
      <trkpt lat="42.8322" lon="0.06853">
        <ele>2399.52</ele>
        <time>2018-03-06T11:49:55Z</time>
      </trkpt>
      <trkpt lat="42.83204" lon="0.06867">
        <ele>2409.64</ele>
        <time>2018-03-06T11:51:30Z</time>
      </trkpt>
      <trkpt lat="42.8319" lon="0.06886">
        <ele>2411.82</ele>
        <time>2018-03-06T11:52:04Z</time>
      </trkpt>
      <trkpt lat="42.83173" lon="0.06897">
        <ele>2409.52</ele>
        <time>2018-03-06T11:52:39Z</time>
      </trkpt>
      <trkpt lat="42.83183" lon="0.06921">
        <ele>2418.52</ele>
        <time>2018-03-06T11:53:41Z</time>
      </trkpt>
      <trkpt lat="42.83176" lon="0.06946">
        <ele>2431.52</ele>
        <time>2018-03-06T11:54:48Z</time>
      </trkpt>
      <trkpt lat="42.83158" lon="0.06957">
        <ele>2441.21</ele>
        <time>2018-03-06T11:55:26Z</time>
      </trkpt>
      <trkpt lat="42.8314" lon="0.06962">
        <ele>2438.51</ele>
        <time>2018-03-06T11:56:07Z</time>
      </trkpt>
      <trkpt lat="42.83127" lon="0.06945">
        <ele>2449.2</ele>
        <time>2018-03-06T11:56:45Z</time>
      </trkpt>
      <trkpt lat="42.83125" lon="0.0697">
        <ele>2453.49</ele>
        <time>2018-03-06T11:57:38Z</time>
      </trkpt>
      <trkpt lat="42.83112" lon="0.06953">
        <ele>2462.12</ele>
        <time>2018-03-06T11:58:28Z</time>
      </trkpt>
      <trkpt lat="42.83117" lon="0.06977">
        <ele>2469.31</ele>
        <time>2018-03-06T11:59:20Z</time>
      </trkpt>
      <trkpt lat="42.83111" lon="0.06953">
        <ele>2467.85</ele>
        <time>2018-03-06T12:34:41Z</time>
      </trkpt>
      <trkpt lat="42.83128" lon="0.06947">
        <ele>2464.94</ele>
        <time>2018-03-06T12:34:45Z</time>
      </trkpt>
      <trkpt lat="42.83145" lon="0.06938">
        <ele>2462.86</ele>
        <time>2018-03-06T12:34:48Z</time>
      </trkpt>
      <trkpt lat="42.83167" lon="0.06926">
        <ele>2459.92</ele>
        <time>2018-03-06T12:34:52Z</time>
      </trkpt>
      <trkpt lat="42.83181" lon="0.06903">
        <ele>2455.95</ele>
        <time>2018-03-06T12:34:56Z</time>
      </trkpt>
      <trkpt lat="42.83201" lon="0.06893">
        <ele>2452.95</ele>
        <time>2018-03-06T12:34:59Z</time>
      </trkpt>
      <trkpt lat="42.83219" lon="0.06875">
        <ele>2448</ele>
        <time>2018-03-06T12:35:02Z</time>
      </trkpt>
      <trkpt lat="42.83237" lon="0.06853">
        <ele>2444.95</ele>
        <time>2018-03-06T12:35:05Z</time>
      </trkpt>
      <trkpt lat="42.83257" lon="0.06839">
        <ele>2441.04</ele>
        <time>2018-03-06T12:35:08Z</time>
      </trkpt>
      <trkpt lat="42.83271" lon="0.06815">
        <ele>2436.25</ele>
        <time>2018-03-06T12:35:12Z</time>
      </trkpt>
      <trkpt lat="42.83292" lon="0.06795">
        <ele>2430.28</ele>
        <time>2018-03-06T12:35:16Z</time>
      </trkpt>
      <trkpt lat="42.83321" lon="0.06788">
        <ele>2423.68</ele>
        <time>2018-03-06T12:35:20Z</time>
      </trkpt>
      <trkpt lat="42.83346" lon="0.06791">
        <ele>2418.26</ele>
        <time>2018-03-06T12:35:24Z</time>
      </trkpt>
      <trkpt lat="42.83367" lon="0.0679">
        <ele>2414.05</ele>
        <time>2018-03-06T12:35:27Z</time>
      </trkpt>
      <trkpt lat="42.83391" lon="0.06784">
        <ele>2409.95</ele>
        <time>2018-03-06T12:35:31Z</time>
      </trkpt>
      <trkpt lat="42.8341" lon="0.06769">
        <ele>2404.26</ele>
        <time>2018-03-06T12:35:35Z</time>
      </trkpt>
      <trkpt lat="42.83392" lon="0.06758">
        <ele>2379.11</ele>
        <time>2018-03-06T12:35:50Z</time>
      </trkpt>
      <trkpt lat="42.83404" lon="0.06738">
        <ele>2359.28</ele>
        <time>2018-03-06T12:36:50Z</time>
      </trkpt>
      <trkpt lat="42.83423" lon="0.06724">
        <ele>2349.48</ele>
        <time>2018-03-06T12:36:54Z</time>
      </trkpt>
      <trkpt lat="42.83443" lon="0.06713">
        <ele>2342.06</ele>
        <time>2018-03-06T12:36:58Z</time>
      </trkpt>
      <trkpt lat="42.83463" lon="0.06706">
        <ele>2337.95</ele>
        <time>2018-03-06T12:37:02Z</time>
      </trkpt>
      <trkpt lat="42.83485" lon="0.06711">
        <ele>2334.92</ele>
        <time>2018-03-06T12:37:06Z</time>
      </trkpt>
      <trkpt lat="42.83504" lon="0.06696">
        <ele>2328.64</ele>
        <time>2018-03-06T12:37:10Z</time>
      </trkpt>
      <trkpt lat="42.8352" lon="0.06681">
        <ele>2321.89</ele>
        <time>2018-03-06T12:37:15Z</time>
      </trkpt>
      <trkpt lat="42.83521" lon="0.06656">
        <ele>2316.85</ele>
        <time>2018-03-06T12:37:24Z</time>
      </trkpt>
      <trkpt lat="42.83535" lon="0.06638">
        <ele>2310.93</ele>
        <time>2018-03-06T12:37:30Z</time>
      </trkpt>
      <trkpt lat="42.83531" lon="0.06614">
        <ele>2300.18</ele>
        <time>2018-03-06T12:37:37Z</time>
      </trkpt>
      <trkpt lat="42.83511" lon="0.06611">
        <ele>2297.71</ele>
        <time>2018-03-06T12:37:41Z</time>
      </trkpt>
      <trkpt lat="42.83493" lon="0.06602">
        <ele>2294.83</ele>
        <time>2018-03-06T12:37:48Z</time>
      </trkpt>
      <trkpt lat="42.83513" lon="0.06588">
        <ele>2287.36</ele>
        <time>2018-03-06T12:37:56Z</time>
      </trkpt>
      <trkpt lat="42.83528" lon="0.06567">
        <ele>2278.95</ele>
        <time>2018-03-06T12:38:03Z</time>
      </trkpt>
      <trkpt lat="42.83526" lon="0.06539">
        <ele>2271.03</ele>
        <time>2018-03-06T12:38:12Z</time>
      </trkpt>
      <trkpt lat="42.83539" lon="0.0652">
        <ele>2262.43</ele>
        <time>2018-03-06T12:38:17Z</time>
      </trkpt>
      <trkpt lat="42.83546" lon="0.06495">
        <ele>2256.27</ele>
        <time>2018-03-06T12:38:22Z</time>
      </trkpt>
      <trkpt lat="42.83561" lon="0.06478">
        <ele>2232.15</ele>
        <time>2018-03-06T12:42:41Z</time>
      </trkpt>
      <trkpt lat="42.83568" lon="0.0645">
        <ele>2226.52</ele>
        <time>2018-03-06T12:42:46Z</time>
      </trkpt>
      <trkpt lat="42.83575" lon="0.06423">
        <ele>2219.35</ele>
        <time>2018-03-06T12:42:50Z</time>
      </trkpt>
      <trkpt lat="42.83585" lon="0.06399">
        <ele>2214.95</ele>
        <time>2018-03-06T12:42:54Z</time>
      </trkpt>
      <trkpt lat="42.83602" lon="0.06382">
        <ele>2206.59</ele>
        <time>2018-03-06T12:42:58Z</time>
      </trkpt>
      <trkpt lat="42.83612" lon="0.06358">
        <ele>2200.28</ele>
        <time>2018-03-06T12:43:02Z</time>
      </trkpt>
      <trkpt lat="42.83609" lon="0.06332">
        <ele>2195.08</ele>
        <time>2018-03-06T12:43:05Z</time>
      </trkpt>
      <trkpt lat="42.83625" lon="0.06315">
        <ele>2188.08</ele>
        <time>2018-03-06T12:43:09Z</time>
      </trkpt>
      <trkpt lat="42.83642" lon="0.06304">
        <ele>2183.28</ele>
        <time>2018-03-06T12:43:12Z</time>
      </trkpt>
      <trkpt lat="42.83656" lon="0.06283">
        <ele>2178.29</ele>
        <time>2018-03-06T12:43:15Z</time>
      </trkpt>
      <trkpt lat="42.83658" lon="0.06257">
        <ele>2173.65</ele>
        <time>2018-03-06T12:43:20Z</time>
      </trkpt>
      <trkpt lat="42.83643" lon="0.06244">
        <ele>2167.12</ele>
        <time>2018-03-06T12:46:03Z</time>
      </trkpt>
      <trkpt lat="42.83644" lon="0.06215">
        <ele>2153.53</ele>
        <time>2018-03-06T12:47:41Z</time>
      </trkpt>
      <trkpt lat="42.83651" lon="0.06193">
        <ele>2151.82</ele>
        <time>2018-03-06T12:47:47Z</time>
      </trkpt>
      <trkpt lat="42.8366" lon="0.0617">
        <ele>2151.5</ele>
        <time>2018-03-06T12:47:53Z</time>
      </trkpt>
      <trkpt lat="42.83668" lon="0.06146">
        <ele>2150.52</ele>
        <time>2018-03-06T12:48:01Z</time>
      </trkpt>
      <trkpt lat="42.83677" lon="0.06124">
        <ele>2146.61</ele>
        <time>2018-03-06T12:48:15Z</time>
      </trkpt>
      <trkpt lat="42.8369" lon="0.06105">
        <ele>2144.83</ele>
        <time>2018-03-06T12:48:22Z</time>
      </trkpt>
      <trkpt lat="42.83702" lon="0.06084">
        <ele>2141.82</ele>
        <time>2018-03-06T12:48:30Z</time>
      </trkpt>
      <trkpt lat="42.83708" lon="0.06057">
        <ele>2136.95</ele>
        <time>2018-03-06T12:48:37Z</time>
      </trkpt>
      <trkpt lat="42.8373" lon="0.06057">
        <ele>2130.22</ele>
        <time>2018-03-06T12:48:45Z</time>
      </trkpt>
      <trkpt lat="42.83746" lon="0.06041">
        <ele>2117.86</ele>
        <time>2018-03-06T12:49:10Z</time>
      </trkpt>
      <trkpt lat="42.83765" lon="0.06037">
        <ele>2108.65</ele>
        <time>2018-03-06T12:49:23Z</time>
      </trkpt>
      <trkpt lat="42.83776" lon="0.06015">
        <ele>2103.35</ele>
        <time>2018-03-06T12:49:29Z</time>
      </trkpt>
      <trkpt lat="42.83795" lon="0.05999">
        <ele>2101.85</ele>
        <time>2018-03-06T12:49:34Z</time>
      </trkpt>
      <trkpt lat="42.83811" lon="0.05985">
        <ele>2095.53</ele>
        <time>2018-03-06T12:50:48Z</time>
      </trkpt>
      <trkpt lat="42.83829" lon="0.05991">
        <ele>2092.62</ele>
        <time>2018-03-06T12:50:55Z</time>
      </trkpt>
      <trkpt lat="42.83847" lon="0.0599">
        <ele>2086.04</ele>
        <time>2018-03-06T12:51:02Z</time>
      </trkpt>
      <trkpt lat="42.83867" lon="0.05986">
        <ele>2078.92</ele>
        <time>2018-03-06T12:51:12Z</time>
      </trkpt>
      <trkpt lat="42.83879" lon="0.05963">
        <ele>2071.92</ele>
        <time>2018-03-06T12:51:19Z</time>
      </trkpt>
      <trkpt lat="42.83885" lon="0.05938">
        <ele>2068.55</ele>
        <time>2018-03-06T12:51:26Z</time>
      </trkpt>
      <trkpt lat="42.83895" lon="0.05916">
        <ele>2060.04</ele>
        <time>2018-03-06T12:51:54Z</time>
      </trkpt>
      <trkpt lat="42.83909" lon="0.05895">
        <ele>2053.25</ele>
        <time>2018-03-06T12:51:59Z</time>
      </trkpt>
      <trkpt lat="42.8392" lon="0.05875">
        <ele>2048.83</ele>
        <time>2018-03-06T12:52:05Z</time>
      </trkpt>
      <trkpt lat="42.83934" lon="0.05857">
        <ele>2045.86</ele>
        <time>2018-03-06T12:52:11Z</time>
      </trkpt>
      <trkpt lat="42.83953" lon="0.05847">
        <ele>2042.55</ele>
        <time>2018-03-06T12:52:17Z</time>
      </trkpt>
      <trkpt lat="42.83969" lon="0.05831">
        <ele>2035.85</ele>
        <time>2018-03-06T12:52:41Z</time>
      </trkpt>
      <trkpt lat="42.83973" lon="0.05806">
        <ele>2032.61</ele>
        <time>2018-03-06T12:52:51Z</time>
      </trkpt>
      <trkpt lat="42.8398" lon="0.05783">
        <ele>2028.15</ele>
        <time>2018-03-06T12:52:59Z</time>
      </trkpt>
      <trkpt lat="42.83991" lon="0.05761">
        <ele>2022.16</ele>
        <time>2018-03-06T12:53:06Z</time>
      </trkpt>
      <trkpt lat="42.83997" lon="0.05736">
        <ele>2014.42</ele>
        <time>2018-03-06T12:53:12Z</time>
      </trkpt>
      <trkpt lat="42.8401" lon="0.05718">
        <ele>2005.62</ele>
        <time>2018-03-06T12:53:21Z</time>
      </trkpt>
      <trkpt lat="42.84022" lon="0.05696">
        <ele>1995.15</ele>
        <time>2018-03-06T12:53:40Z</time>
      </trkpt>
      <trkpt lat="42.8403" lon="0.05673">
        <ele>1988.62</ele>
        <time>2018-03-06T12:53:50Z</time>
      </trkpt>
      <trkpt lat="42.84034" lon="0.05649">
        <ele>1979.62</ele>
        <time>2018-03-06T12:54:01Z</time>
      </trkpt>
      <trkpt lat="42.84051" lon="0.05634">
        <ele>1968.96</ele>
        <time>2018-03-06T12:54:13Z</time>
      </trkpt>
      <trkpt lat="42.84044" lon="0.05611">
        <ele>1960.91</ele>
        <time>2018-03-06T12:54:33Z</time>
      </trkpt>
      <trkpt lat="42.84036" lon="0.05585">
        <ele>1955.22</ele>
        <time>2018-03-06T12:54:40Z</time>
      </trkpt>
      <trkpt lat="42.84053" lon="0.05574">
        <ele>1947.62</ele>
        <time>2018-03-06T12:54:53Z</time>
      </trkpt>
      <trkpt lat="42.84067" lon="0.05558">
        <ele>1939.71</ele>
        <time>2018-03-06T12:55:05Z</time>
      </trkpt>
      <trkpt lat="42.84058" lon="0.05531">
        <ele>1933.52</ele>
        <time>2018-03-06T12:55:11Z</time>
      </trkpt>
      <trkpt lat="42.84074" lon="0.05517">
        <ele>1918.62</ele>
        <time>2018-03-06T12:55:36Z</time>
      </trkpt>
      <trkpt lat="42.84079" lon="0.05492">
        <ele>1914.56</ele>
        <time>2018-03-06T12:55:43Z</time>
      </trkpt>
      <trkpt lat="42.84085" lon="0.05469">
        <ele>1907.95</ele>
        <time>2018-03-06T12:55:52Z</time>
      </trkpt>
      <trkpt lat="42.84082" lon="0.05445">
        <ele>1897.91</ele>
        <time>2018-03-06T12:56:24Z</time>
      </trkpt>
      <trkpt lat="42.8408" lon="0.05417">
        <ele>1895.53</ele>
        <time>2018-03-06T12:56:29Z</time>
      </trkpt>
      <trkpt lat="42.84082" lon="0.0539">
        <ele>1893.85</ele>
        <time>2018-03-06T12:56:34Z</time>
      </trkpt>
      <trkpt lat="42.84089" lon="0.05366">
        <ele>1892.56</ele>
        <time>2018-03-06T12:56:37Z</time>
      </trkpt>
      <trkpt lat="42.841" lon="0.05345">
        <ele>1892.52</ele>
        <time>2018-03-06T12:56:41Z</time>
      </trkpt>
      <trkpt lat="42.84119" lon="0.05338">
        <ele>1890.52</ele>
        <time>2018-03-06T12:56:51Z</time>
      </trkpt>
      <trkpt lat="42.84133" lon="0.0532">
        <ele>1889.52</ele>
        <time>2018-03-06T12:56:59Z</time>
      </trkpt>
      <trkpt lat="42.84146" lon="0.053">
        <ele>1887.53</ele>
        <time>2018-03-06T12:57:07Z</time>
      </trkpt>
      <trkpt lat="42.84161" lon="0.05286">
        <ele>1876.61</ele>
        <time>2018-03-06T13:23:24Z</time>
      </trkpt>
      <trkpt lat="42.84176" lon="0.05271">
        <ele>1873.53</ele>
        <time>2018-03-06T13:24:01Z</time>
      </trkpt>
      <trkpt lat="42.84194" lon="0.05264">
        <ele>1868.52</ele>
        <time>2018-03-06T13:24:25Z</time>
      </trkpt>
      <trkpt lat="42.84212" lon="0.05262">
        <ele>1870.55</ele>
        <time>2018-03-06T13:24:52Z</time>
      </trkpt>
      <trkpt lat="42.84229" lon="0.05252">
        <ele>1866.52</ele>
        <time>2018-03-06T13:25:18Z</time>
      </trkpt>
      <trkpt lat="42.84247" lon="0.05246">
        <ele>1867.42</ele>
        <time>2018-03-06T13:25:44Z</time>
      </trkpt>
      <trkpt lat="42.84265" lon="0.0524">
        <ele>1877.22</ele>
        <time>2018-03-06T13:26:14Z</time>
      </trkpt>
      <trkpt lat="42.84281" lon="0.05229">
        <ele>1880.52</ele>
        <time>2018-03-06T13:26:39Z</time>
      </trkpt>
      <trkpt lat="42.84297" lon="0.05215">
        <ele>1881.25</ele>
        <time>2018-03-06T13:27:05Z</time>
      </trkpt>
      <trkpt lat="42.84314" lon="0.05205">
        <ele>1882.52</ele>
        <time>2018-03-06T13:27:31Z</time>
      </trkpt>
      <trkpt lat="42.84329" lon="0.05192">
        <ele>1885.43</ele>
        <time>2018-03-06T13:27:59Z</time>
      </trkpt>
      <trkpt lat="42.84346" lon="0.0518">
        <ele>1886.55</ele>
        <time>2018-03-06T13:28:58Z</time>
      </trkpt>
      <trkpt lat="42.84362" lon="0.05171">
        <ele>1889.52</ele>
        <time>2018-03-06T13:29:26Z</time>
      </trkpt>
      <trkpt lat="42.84378" lon="0.05158">
        <ele>1893.52</ele>
        <time>2018-03-06T13:29:52Z</time>
      </trkpt>
      <trkpt lat="42.84392" lon="0.0514">
        <ele>1897.22</ele>
        <time>2018-03-06T13:30:19Z</time>
      </trkpt>
      <trkpt lat="42.84403" lon="0.05121">
        <ele>1903.49</ele>
        <time>2018-03-06T13:30:48Z</time>
      </trkpt>
      <trkpt lat="42.84413" lon="0.051">
        <ele>1906.51</ele>
        <time>2018-03-06T13:31:14Z</time>
      </trkpt>
      <trkpt lat="42.84419" lon="0.05076">
        <ele>1910.22</ele>
        <time>2018-03-06T13:39:28Z</time>
      </trkpt>
      <trkpt lat="42.84435" lon="0.0506">
        <ele>1909.52</ele>
        <time>2018-03-06T13:39:44Z</time>
      </trkpt>
      <trkpt lat="42.84446" lon="0.0504">
        <ele>1907.82</ele>
        <time>2018-03-06T13:39:52Z</time>
      </trkpt>
      <trkpt lat="42.84455" lon="0.05016">
        <ele>1906.61</ele>
        <time>2018-03-06T13:39:58Z</time>
      </trkpt>
      <trkpt lat="42.84468" lon="0.04996">
        <ele>1902.64</ele>
        <time>2018-03-06T13:40:03Z</time>
      </trkpt>
      <trkpt lat="42.84479" lon="0.04971">
        <ele>1900.56</ele>
        <time>2018-03-06T13:40:08Z</time>
      </trkpt>
      <trkpt lat="42.84492" lon="0.04949">
        <ele>1898.82</ele>
        <time>2018-03-06T13:40:13Z</time>
      </trkpt>
      <trkpt lat="42.84505" lon="0.04928">
        <ele>1896.55</ele>
        <time>2018-03-06T13:41:56Z</time>
      </trkpt>
      <trkpt lat="42.84517" lon="0.04905">
        <ele>1893.92</ele>
        <time>2018-03-06T13:42:00Z</time>
      </trkpt>
      <trkpt lat="42.8453" lon="0.04885">
        <ele>1891.85</ele>
        <time>2018-03-06T13:42:04Z</time>
      </trkpt>
      <trkpt lat="42.84544" lon="0.04864">
        <ele>1887.25</ele>
        <time>2018-03-06T13:42:09Z</time>
      </trkpt>
      <trkpt lat="42.84556" lon="0.04838">
        <ele>1881.25</ele>
        <time>2018-03-06T13:42:14Z</time>
      </trkpt>
      <trkpt lat="42.8457" lon="0.04821">
        <ele>1871.96</ele>
        <time>2018-03-06T13:42:22Z</time>
      </trkpt>
      <trkpt lat="42.84584" lon="0.04798">
        <ele>1867.95</ele>
        <time>2018-03-06T13:42:26Z</time>
      </trkpt>
      <trkpt lat="42.84593" lon="0.04775">
        <ele>1863.98</ele>
        <time>2018-03-06T13:42:29Z</time>
      </trkpt>
      <trkpt lat="42.84605" lon="0.04753">
        <ele>1860.71</ele>
        <time>2018-03-06T13:42:33Z</time>
      </trkpt>
      <trkpt lat="42.84621" lon="0.04735">
        <ele>1853.37</ele>
        <time>2018-03-06T13:42:37Z</time>
      </trkpt>
      <trkpt lat="42.84632" lon="0.04713">
        <ele>1846.37</ele>
        <time>2018-03-06T13:42:41Z</time>
      </trkpt>
      <trkpt lat="42.84638" lon="0.04685">
        <ele>1838.11</ele>
        <time>2018-03-06T13:42:45Z</time>
      </trkpt>
      <trkpt lat="42.84643" lon="0.0466">
        <ele>1829.4</ele>
        <time>2018-03-06T13:42:49Z</time>
      </trkpt>
      <trkpt lat="42.8465" lon="0.04637">
        <ele>1818.92</ele>
        <time>2018-03-06T13:43:50Z</time>
      </trkpt>
      <trkpt lat="42.84649" lon="0.04612">
        <ele>1816.62</ele>
        <time>2018-03-06T13:43:55Z</time>
      </trkpt>
      <trkpt lat="42.84647" lon="0.04584">
        <ele>1812.92</ele>
        <time>2018-03-06T13:44:02Z</time>
      </trkpt>
      <trkpt lat="42.8466" lon="0.04564">
        <ele>1810.55</ele>
        <time>2018-03-06T13:44:10Z</time>
      </trkpt>
      <trkpt lat="42.84668" lon="0.04536">
        <ele>1806.04</ele>
        <time>2018-03-06T13:44:14Z</time>
      </trkpt>
      <trkpt lat="42.84667" lon="0.04504">
        <ele>1801.22</ele>
        <time>2018-03-06T13:44:19Z</time>
      </trkpt>
      <trkpt lat="42.8467" lon="0.04478">
        <ele>1797.93</ele>
        <time>2018-03-06T13:44:23Z</time>
      </trkpt>
      <trkpt lat="42.84672" lon="0.04452">
        <ele>1792.95</ele>
        <time>2018-03-06T13:44:28Z</time>
      </trkpt>
      <trkpt lat="42.84691" lon="0.04445">
        <ele>1789.85</ele>
        <time>2018-03-06T13:44:33Z</time>
      </trkpt>
      <trkpt lat="42.84706" lon="0.04426">
        <ele>1785.25</ele>
        <time>2018-03-06T13:44:37Z</time>
      </trkpt>
      <trkpt lat="42.84714" lon="0.04399">
        <ele>1779.38</ele>
        <time>2018-03-06T13:44:40Z</time>
      </trkpt>
      <trkpt lat="42.84731" lon="0.04377">
        <ele>1760.15</ele>
        <time>2018-03-06T13:45:23Z</time>
      </trkpt>
      <trkpt lat="42.84749" lon="0.04358">
        <ele>1755.19</ele>
        <time>2018-03-06T13:45:27Z</time>
      </trkpt>
      <trkpt lat="42.84766" lon="0.04347">
        <ele>1749.94</ele>
        <time>2018-03-06T13:45:34Z</time>
      </trkpt>
      <trkpt lat="42.84767" lon="0.04322">
        <ele>1739.85</ele>
        <time>2018-03-06T13:45:46Z</time>
      </trkpt>
      <trkpt lat="42.84778" lon="0.04303">
        <ele>1733.28</ele>
        <time>2018-03-06T13:45:51Z</time>
      </trkpt>
      <trkpt lat="42.84796" lon="0.04309">
        <ele>1723.92</ele>
        <time>2018-03-06T13:46:00Z</time>
      </trkpt>
      <trkpt lat="42.84807" lon="0.04288">
        <ele>1716.65</ele>
        <time>2018-03-06T13:46:06Z</time>
      </trkpt>
      <trkpt lat="42.84802" lon="0.04263">
        <ele>1707.94</ele>
        <time>2018-03-06T13:46:24Z</time>
      </trkpt>
      <trkpt lat="42.84797" lon="0.04238">
        <ele>1705.53</ele>
        <time>2018-03-06T13:46:32Z</time>
      </trkpt>
      <trkpt lat="42.84797" lon="0.04212">
        <ele>1697.52</ele>
        <time>2018-03-06T13:47:58Z</time>
      </trkpt>
      <trkpt lat="42.84803" lon="0.04188">
        <ele>1697.54</ele>
        <time>2018-03-06T13:48:22Z</time>
      </trkpt>
      <trkpt lat="42.8481" lon="0.04161">
        <ele>1693.83</ele>
        <time>2018-03-06T13:48:30Z</time>
      </trkpt>
      <trkpt lat="42.84818" lon="0.04139">
        <ele>1689.55</ele>
        <time>2018-03-06T13:48:41Z</time>
      </trkpt>
      <trkpt lat="42.8483" lon="0.04119">
        <ele>1680.65</ele>
        <time>2018-03-06T13:48:55Z</time>
      </trkpt>
      <trkpt lat="42.84837" lon="0.04096">
        <ele>1674.51</ele>
        <time>2018-03-06T13:49:02Z</time>
      </trkpt>
      <trkpt lat="42.84839" lon="0.0407">
        <ele>1672.53</ele>
        <time>2018-03-06T13:49:23Z</time>
      </trkpt>
      <trkpt lat="42.84839" lon="0.04045">
        <ele>1670.55</ele>
        <time>2018-03-06T13:49:32Z</time>
      </trkpt>
      <trkpt lat="42.84843" lon="0.04019">
        <ele>1669.53</ele>
        <time>2018-03-06T13:49:40Z</time>
      </trkpt>
      <trkpt lat="42.84846" lon="0.03994">
        <ele>1665.67</ele>
        <time>2018-03-06T13:49:47Z</time>
      </trkpt>
      <trkpt lat="42.84854" lon="0.03969">
        <ele>1658.65</ele>
        <time>2018-03-06T13:49:53Z</time>
      </trkpt>
      <trkpt lat="42.84856" lon="0.03941">
        <ele>1648.91</ele>
        <time>2018-03-06T13:53:21Z</time>
      </trkpt>
      <trkpt lat="42.84861" lon="0.03917">
        <ele>1645.64</ele>
        <time>2018-03-06T13:53:27Z</time>
      </trkpt>
      <trkpt lat="42.84873" lon="0.03897">
        <ele>1640.85</ele>
        <time>2018-03-06T13:53:36Z</time>
      </trkpt>
      <trkpt lat="42.84875" lon="0.03871">
        <ele>1634.94</ele>
        <time>2018-03-06T13:53:43Z</time>
      </trkpt>
      <trkpt lat="42.84872" lon="0.03844">
        <ele>1627.83</ele>
        <time>2018-03-06T13:54:29Z</time>
      </trkpt>
      <trkpt lat="42.8487" lon="0.03818">
        <ele>1624.61</ele>
        <time>2018-03-06T13:54:37Z</time>
      </trkpt>
      <trkpt lat="42.84878" lon="0.03794">
        <ele>1620.55</ele>
        <time>2018-03-06T13:54:46Z</time>
      </trkpt>
      <trkpt lat="42.84882" lon="0.0377">
        <ele>1613.89</ele>
        <time>2018-03-06T13:54:54Z</time>
      </trkpt>
      <trkpt lat="42.84885" lon="0.03744">
        <ele>1605.46</ele>
        <time>2018-03-06T13:55:00Z</time>
      </trkpt>
      <trkpt lat="42.8489" lon="0.03718">
        <ele>1598.25</ele>
        <time>2018-03-06T13:55:05Z</time>
      </trkpt>
      <trkpt lat="42.84882" lon="0.03691">
        <ele>1592.96</ele>
        <time>2018-03-06T13:55:10Z</time>
      </trkpt>
      <trkpt lat="42.84883" lon="0.03661">
        <ele>1590.83</ele>
        <time>2018-03-06T13:55:15Z</time>
      </trkpt>
      <trkpt lat="42.84889" lon="0.03632">
        <ele>1589.61</ele>
        <time>2018-03-06T13:55:19Z</time>
      </trkpt>
      <trkpt lat="42.84895" lon="0.03604">
        <ele>1586.65</ele>
        <time>2018-03-06T13:55:24Z</time>
      </trkpt>
      <trkpt lat="42.84892" lon="0.0358">
        <ele>1584.43</ele>
        <time>2018-03-06T13:55:48Z</time>
      </trkpt>
      <trkpt lat="42.84898" lon="0.03553">
        <ele>1582.62</ele>
        <time>2018-03-06T13:55:58Z</time>
      </trkpt>
      <trkpt lat="42.84898" lon="0.03526">
        <ele>1577.96</ele>
        <time>2018-03-06T13:56:02Z</time>
      </trkpt>
      <trkpt lat="42.84915" lon="0.03514">
        <ele>1573.87</ele>
        <time>2018-03-06T13:56:07Z</time>
      </trkpt>
      <trkpt lat="42.84914" lon="0.03486">
        <ele>1569.95</ele>
        <time>2018-03-06T13:56:11Z</time>
      </trkpt>
      <trkpt lat="42.84907" lon="0.03463">
        <ele>1567.72</ele>
        <time>2018-03-06T13:59:27Z</time>
      </trkpt>
      <trkpt lat="42.8491" lon="0.03435">
        <ele>1564.91</ele>
        <time>2018-03-06T14:00:12Z</time>
      </trkpt>
      <trkpt lat="42.84931" lon="0.0343">
        <ele>1558.71</ele>
        <time>2018-03-06T14:00:20Z</time>
      </trkpt>
      <trkpt lat="42.84935" lon="0.03403">
        <ele>1553.64</ele>
        <time>2018-03-06T14:00:30Z</time>
      </trkpt>
      <trkpt lat="42.84938" lon="0.03375">
        <ele>1551.64</ele>
        <time>2018-03-06T14:00:34Z</time>
      </trkpt>
      <trkpt lat="42.84945" lon="0.0335">
        <ele>1545.95</ele>
        <time>2018-03-06T14:01:08Z</time>
      </trkpt>
      <trkpt lat="42.84957" lon="0.03331">
        <ele>1540.95</ele>
        <time>2018-03-06T14:01:14Z</time>
      </trkpt>
      <trkpt lat="42.84944" lon="0.03309">
        <ele>1536.95</ele>
        <time>2018-03-06T14:01:18Z</time>
      </trkpt>
      <trkpt lat="42.84942" lon="0.0328">
        <ele>1532.95</ele>
        <time>2018-03-06T14:01:22Z</time>
      </trkpt>
      <trkpt lat="42.8493" lon="0.03255">
        <ele>1530.15</ele>
        <time>2018-03-06T14:01:26Z</time>
      </trkpt>
      <trkpt lat="42.84924" lon="0.03229">
        <ele>1527.66</ele>
        <time>2018-03-06T14:01:29Z</time>
      </trkpt>
      <trkpt lat="42.84917" lon="0.03206">
        <ele>1524.24</ele>
        <time>2018-03-06T14:01:33Z</time>
      </trkpt>
      <trkpt lat="42.84905" lon="0.03181">
        <ele>1520.86</ele>
        <time>2018-03-06T14:01:37Z</time>
      </trkpt>
      <trkpt lat="42.84907" lon="0.03153">
        <ele>1517.62</ele>
        <time>2018-03-06T14:01:43Z</time>
      </trkpt>
      <trkpt lat="42.84905" lon="0.03128">
        <ele>1516.52</ele>
        <time>2018-03-06T14:01:50Z</time>
      </trkpt>
      <trkpt lat="42.84905" lon="0.03104">
        <ele>1512.52</ele>
        <time>2018-03-06T14:03:07Z</time>
      </trkpt>
      <trkpt lat="42.849" lon="0.03079">
        <ele>1513.22</ele>
        <time>2018-03-06T14:04:14Z</time>
      </trkpt>
      <trkpt lat="42.84891" lon="0.03057">
        <ele>1517.29</ele>
        <time>2018-03-06T14:04:35Z</time>
      </trkpt>
      <trkpt lat="42.84881" lon="0.03035">
        <ele>1517.52</ele>
        <time>2018-03-06T14:04:58Z</time>
      </trkpt>
      <trkpt lat="42.84877" lon="0.0301">
        <ele>1516.55</ele>
        <time>2018-03-06T14:05:41Z</time>
      </trkpt>
      <trkpt lat="42.8488" lon="0.02985">
        <ele>1515.61</ele>
        <time>2018-03-06T14:06:03Z</time>
      </trkpt>
      <trkpt lat="42.84883" lon="0.0296">
        <ele>1515.22</ele>
        <time>2018-03-06T14:06:37Z</time>
      </trkpt>
      <trkpt lat="42.84885" lon="0.02935">
        <ele>1516.52</ele>
        <time>2018-03-06T14:07:23Z</time>
      </trkpt>
      <trkpt lat="42.8489" lon="0.02911">
        <ele>1515.52</ele>
        <time>2018-03-06T14:07:43Z</time>
      </trkpt>
      <trkpt lat="42.84903" lon="0.02893">
        <ele>1517.52</ele>
        <time>2018-03-06T14:08:00Z</time>
      </trkpt>
      <trkpt lat="42.84918" lon="0.02878">
        <ele>1518.52</ele>
        <time>2018-03-06T14:08:19Z</time>
      </trkpt>
      <trkpt lat="42.8493" lon="0.0286">
        <ele>1519.51</ele>
        <time>2018-03-06T14:08:39Z</time>
      </trkpt>
      <trkpt lat="42.84939" lon="0.02838">
        <ele>1517.52</ele>
        <time>2018-03-06T14:09:02Z</time>
      </trkpt>
      <trkpt lat="42.84942" lon="0.02813">
        <ele>1518.52</ele>
        <time>2018-03-06T14:09:22Z</time>
      </trkpt>
      <trkpt lat="42.84946" lon="0.02789">
        <ele>1518.52</ele>
        <time>2018-03-06T14:09:45Z</time>
      </trkpt>
      <trkpt lat="42.84955" lon="0.02767">
        <ele>1521.52</ele>
        <time>2018-03-06T14:10:07Z</time>
      </trkpt>
      <trkpt lat="42.84963" lon="0.02744">
        <ele>1523.52</ele>
        <time>2018-03-06T14:10:29Z</time>
      </trkpt>
      <trkpt lat="42.8497" lon="0.02721">
        <ele>1525.52</ele>
        <time>2018-03-06T14:10:53Z</time>
      </trkpt>
      <trkpt lat="42.84976" lon="0.02697">
        <ele>1526.45</ele>
        <time>2018-03-06T14:11:15Z</time>
      </trkpt>
      <trkpt lat="42.84981" lon="0.02673">
        <ele>1527.52</ele>
        <time>2018-03-06T14:11:35Z</time>
      </trkpt>
      <trkpt lat="42.84987" lon="0.02649">
        <ele>1530.52</ele>
        <time>2018-03-06T14:12:32Z</time>
      </trkpt>
      <trkpt lat="42.8499" lon="0.02624">
        <ele>1534.55</ele>
        <time>2018-03-06T14:18:27Z</time>
      </trkpt>
      <trkpt lat="42.84997" lon="0.026">
        <ele>1534.55</ele>
        <time>2018-03-06T14:18:38Z</time>
      </trkpt>
      <trkpt lat="42.85002" lon="0.02575">
        <ele>1532.85</ele>
        <time>2018-03-06T14:18:44Z</time>
      </trkpt>
      <trkpt lat="42.85008" lon="0.02549">
        <ele>1531.53</ele>
        <time>2018-03-06T14:18:48Z</time>
      </trkpt>
      <trkpt lat="42.85023" lon="0.02531">
        <ele>1529.58</ele>
        <time>2018-03-06T14:18:52Z</time>
      </trkpt>
      <trkpt lat="42.85036" lon="0.02508">
        <ele>1528.61</ele>
        <time>2018-03-06T14:18:59Z</time>
      </trkpt>
      <trkpt lat="42.85041" lon="0.02484">
        <ele>1525.52</ele>
        <time>2018-03-06T14:19:13Z</time>
      </trkpt>
      <trkpt lat="42.85055" lon="0.02463">
        <ele>1520.92</ele>
        <time>2018-03-06T14:19:22Z</time>
      </trkpt>
      <trkpt lat="42.85066" lon="0.02435">
        <ele>1513.03</ele>
        <time>2018-03-06T14:19:27Z</time>
      </trkpt>
      <trkpt lat="42.85078" lon="0.02413">
        <ele>1508.23</ele>
        <time>2018-03-06T14:19:29Z</time>
      </trkpt>
      <trkpt lat="42.8509" lon="0.02393">
        <ele>1505.49</ele>
        <time>2018-03-06T14:19:31Z</time>
      </trkpt>
      <trkpt lat="42.85102" lon="0.02372">
        <ele>1503.7</ele>
        <time>2018-03-06T14:19:33Z</time>
      </trkpt>
      <trkpt lat="42.85112" lon="0.02347">
        <ele>1501.85</ele>
        <time>2018-03-06T14:19:36Z</time>
      </trkpt>
      <trkpt lat="42.85121" lon="0.02324">
        <ele>1500.53</ele>
        <time>2018-03-06T14:19:42Z</time>
      </trkpt>
      <trkpt lat="42.85127" lon="0.02301">
        <ele>1496.91</ele>
        <time>2018-03-06T14:19:49Z</time>
      </trkpt>
      <trkpt lat="42.85134" lon="0.02273">
        <ele>1491.94</ele>
        <time>2018-03-06T14:19:55Z</time>
      </trkpt>
      <trkpt lat="42.85138" lon="0.02249">
        <ele>1489.62</ele>
        <time>2018-03-06T14:19:59Z</time>
      </trkpt>
      <trkpt lat="42.85143" lon="0.02224">
        <ele>1487.53</ele>
        <time>2018-03-06T14:20:05Z</time>
      </trkpt>
      <trkpt lat="42.85156" lon="0.02245">
        <ele>1485.83</ele>
        <time>2018-03-06T14:20:20Z</time>
      </trkpt>
      <trkpt lat="42.85165" lon="0.02222">
        <ele>1476.86</ele>
        <time>2018-03-06T14:20:32Z</time>
      </trkpt>
      <trkpt lat="42.85184" lon="0.02209">
        <ele>1467.82</ele>
        <time>2018-03-06T14:21:53Z</time>
      </trkpt>
      <trkpt lat="42.85198" lon="0.02187">
        <ele>1466.9</ele>
        <time>2018-03-06T14:21:58Z</time>
      </trkpt>
      <trkpt lat="42.85208" lon="0.02163">
        <ele>1464.83</ele>
        <time>2018-03-06T14:22:02Z</time>
      </trkpt>
      <trkpt lat="42.85218" lon="0.0214">
        <ele>1461.86</ele>
        <time>2018-03-06T14:22:06Z</time>
      </trkpt>
      <trkpt lat="42.8523" lon="0.02115">
        <ele>1457.95</ele>
        <time>2018-03-06T14:22:10Z</time>
      </trkpt>
      <trkpt lat="42.85239" lon="0.02092">
        <ele>1456.62</ele>
        <time>2018-03-06T14:22:14Z</time>
      </trkpt>
      <trkpt lat="42.8525" lon="0.02066">
        <ele>1454.56</ele>
        <time>2018-03-06T14:22:18Z</time>
      </trkpt>
      <trkpt lat="42.85258" lon="0.02043">
        <ele>1452.83</ele>
        <time>2018-03-06T14:22:22Z</time>
      </trkpt>
      <trkpt lat="42.85265" lon="0.0202">
        <ele>1451.53</ele>
        <time>2018-03-06T14:22:27Z</time>
      </trkpt>
      <trkpt lat="42.85279" lon="0.02004">
        <ele>1449.89</ele>
        <time>2018-03-06T14:22:33Z</time>
      </trkpt>
      <trkpt lat="42.85291" lon="0.01979">
        <ele>1443.96</ele>
        <time>2018-03-06T14:22:38Z</time>
      </trkpt>
      <trkpt lat="42.85305" lon="0.01957">
        <ele>1439.74</ele>
        <time>2018-03-06T14:22:42Z</time>
      </trkpt>
      <trkpt lat="42.85318" lon="0.0194">
        <ele>1432.61</ele>
        <time>2018-03-06T14:23:22Z</time>
      </trkpt>
      <trkpt lat="42.85333" lon="0.01925">
        <ele>1428.85</ele>
        <time>2018-03-06T14:36:19Z</time>
      </trkpt>
      <trkpt lat="42.85351" lon="0.01917">
        <ele>1427.55</ele>
        <time>2018-03-06T14:36:41Z</time>
      </trkpt>
      <trkpt lat="42.85366" lon="0.01902">
        <ele>1425.52</ele>
        <time>2018-03-06T14:37:01Z</time>
      </trkpt>
      <trkpt lat="42.8538" lon="0.01886">
        <ele>1422.61</ele>
        <time>2018-03-06T14:37:18Z</time>
      </trkpt>
      <trkpt lat="42.85392" lon="0.01867">
        <ele>1420.52</ele>
        <time>2018-03-06T14:37:34Z</time>
      </trkpt>
      <trkpt lat="42.85405" lon="0.01849">
        <ele>1418.52</ele>
        <time>2018-03-06T14:37:51Z</time>
      </trkpt>
      <trkpt lat="42.85416" lon="0.01828">
        <ele>1417.52</ele>
        <time>2018-03-06T14:38:06Z</time>
      </trkpt>
      <trkpt lat="42.85425" lon="0.01806">
        <ele>1418.51</ele>
        <time>2018-03-06T14:38:24Z</time>
      </trkpt>
      <trkpt lat="42.85439" lon="0.01789">
        <ele>1418.82</ele>
        <time>2018-03-06T14:38:42Z</time>
      </trkpt>
      <trkpt lat="42.85453" lon="0.01774">
        <ele>1418.58</ele>
        <time>2018-03-06T14:39:00Z</time>
      </trkpt>
      <trkpt lat="42.85468" lon="0.01759">
        <ele>1416.53</ele>
        <time>2018-03-06T14:39:18Z</time>
      </trkpt>
      <trkpt lat="42.85469" lon="0.01734">
        <ele>1414.52</ele>
        <time>2018-03-06T14:39:33Z</time>
      </trkpt>
      <trkpt lat="42.85467" lon="0.01708">
        <ele>1412.82</ele>
        <time>2018-03-06T14:39:49Z</time>
      </trkpt>
      <trkpt lat="42.85465" lon="0.01684">
        <ele>1412.5</ele>
        <time>2018-03-06T14:40:04Z</time>
      </trkpt>
      <trkpt lat="42.85459" lon="0.01659">
        <ele>1411.53</ele>
        <time>2018-03-06T14:40:21Z</time>
      </trkpt>
      <trkpt lat="42.85459" lon="0.01634">
        <ele>1408.55</ele>
        <time>2018-03-06T14:40:37Z</time>
      </trkpt>
      <trkpt lat="42.85457" lon="0.01608">
        <ele>1406.52</ele>
        <time>2018-03-06T14:40:53Z</time>
      </trkpt>
      <trkpt lat="42.85459" lon="0.01583">
        <ele>1402.85</ele>
        <time>2018-03-06T14:41:10Z</time>
      </trkpt>
      <trkpt lat="42.8546" lon="0.01558">
        <ele>1401.55</ele>
        <time>2018-03-06T14:41:25Z</time>
      </trkpt>
      <trkpt lat="42.8546" lon="0.01533">
        <ele>1399.52</ele>
        <time>2018-03-06T14:41:41Z</time>
      </trkpt>
      <trkpt lat="42.85468" lon="0.0151">
        <ele>1397.55</ele>
        <time>2018-03-06T14:41:57Z</time>
      </trkpt>
      <trkpt lat="42.85477" lon="0.01489">
        <ele>1393.85</ele>
        <time>2018-03-06T14:42:13Z</time>
      </trkpt>
      <trkpt lat="42.85487" lon="0.01468">
        <ele>1391.82</ele>
        <time>2018-03-06T14:42:29Z</time>
      </trkpt>
      <trkpt lat="42.85498" lon="0.01448">
        <ele>1389.52</ele>
        <time>2018-03-06T14:42:45Z</time>
      </trkpt>
      <trkpt lat="42.85516" lon="0.01439">
        <ele>1387.52</ele>
        <time>2018-03-06T14:43:00Z</time>
      </trkpt>
      <trkpt lat="42.85534" lon="0.01433">
        <ele>1386.52</ele>
        <time>2018-03-06T14:43:14Z</time>
      </trkpt>
      <trkpt lat="42.85552" lon="0.01428">
        <ele>1384.52</ele>
        <time>2018-03-06T14:43:29Z</time>
      </trkpt>
      <trkpt lat="42.85569" lon="0.01419">
        <ele>1381.52</ele>
        <time>2018-03-06T14:43:44Z</time>
      </trkpt>
      <trkpt lat="42.85581" lon="0.014">
        <ele>1377.52</ele>
        <time>2018-03-06T14:44:01Z</time>
      </trkpt>
      <trkpt lat="42.85589" lon="0.01378">
        <ele>1375.52</ele>
        <time>2018-03-06T14:44:15Z</time>
      </trkpt>
      <trkpt lat="42.85593" lon="0.01352">
        <ele>1374.53</ele>
        <time>2018-03-06T14:44:32Z</time>
      </trkpt>
      <trkpt lat="42.85593" lon="0.01327">
        <ele>1373.52</ele>
        <time>2018-03-06T14:44:48Z</time>
      </trkpt>
      <trkpt lat="42.85601" lon="0.01303">
        <ele>1370.55</ele>
        <time>2018-03-06T14:45:05Z</time>
      </trkpt>
      <trkpt lat="42.85606" lon="0.01279">
        <ele>1370.53</ele>
        <time>2018-03-06T14:45:21Z</time>
      </trkpt>
      <trkpt lat="42.85613" lon="0.01256">
        <ele>1367.55</ele>
        <time>2018-03-06T14:45:36Z</time>
      </trkpt>
      <trkpt lat="42.85618" lon="0.01231">
        <ele>1365.52</ele>
        <time>2018-03-06T14:45:52Z</time>
      </trkpt>
      <trkpt lat="42.85627" lon="0.01207">
        <ele>1365.52</ele>
        <time>2018-03-06T14:46:07Z</time>
      </trkpt>
      <trkpt lat="42.85634" lon="0.01184">
        <ele>1364.52</ele>
        <time>2018-03-06T14:46:23Z</time>
      </trkpt>
      <trkpt lat="42.85643" lon="0.01162">
        <ele>1361.55</ele>
        <time>2018-03-06T14:46:39Z</time>
      </trkpt>
      <trkpt lat="42.85654" lon="0.01143">
        <ele>1359.61</ele>
        <time>2018-03-06T14:46:53Z</time>
      </trkpt>
      <trkpt lat="42.85664" lon="0.01121">
        <ele>1359.52</ele>
        <time>2018-03-06T14:47:11Z</time>
      </trkpt>
      <trkpt lat="42.8568" lon="0.01106">
        <ele>1356.52</ele>
        <time>2018-03-06T14:47:27Z</time>
      </trkpt>
      <trkpt lat="42.85697" lon="0.01094">
        <ele>1353.55</ele>
        <time>2018-03-06T14:47:44Z</time>
      </trkpt>
      <trkpt lat="42.85713" lon="0.0108">
        <ele>1351.55</ele>
        <time>2018-03-06T14:48:01Z</time>
      </trkpt>
      <trkpt lat="42.85731" lon="0.01074">
        <ele>1350.52</ele>
        <time>2018-03-06T14:48:16Z</time>
      </trkpt>
      <trkpt lat="42.85749" lon="0.01068">
        <ele>1349.52</ele>
        <time>2018-03-06T14:48:31Z</time>
      </trkpt>
      <trkpt lat="42.85764" lon="0.01052">
        <ele>1346.82</ele>
        <time>2018-03-06T14:48:47Z</time>
      </trkpt>
      <trkpt lat="42.85776" lon="0.01033">
        <ele>1344.52</ele>
        <time>2018-03-06T14:49:03Z</time>
      </trkpt>
      <trkpt lat="42.85789" lon="0.01014">
        <ele>1342.52</ele>
        <time>2018-03-06T14:49:19Z</time>
      </trkpt>
      <trkpt lat="42.858" lon="0.00994">
        <ele>1342.5</ele>
        <time>2018-03-06T14:49:33Z</time>
      </trkpt>
      <trkpt lat="42.8581" lon="0.00973">
        <ele>1342.73</ele>
        <time>2018-03-06T14:49:46Z</time>
      </trkpt>
      <trkpt lat="42.85825" lon="0.00957">
        <ele>1344.52</ele>
        <time>2018-03-06T14:50:00Z</time>
      </trkpt>
      <trkpt lat="42.85839" lon="0.00941">
        <ele>1343.83</ele>
        <time>2018-03-06T14:50:15Z</time>
      </trkpt>
      <trkpt lat="42.85853" lon="0.00925">
        <ele>1342.52</ele>
        <time>2018-03-06T14:50:29Z</time>
      </trkpt>
      <trkpt lat="42.85866" lon="0.00906">
        <ele>1342.52</ele>
        <time>2018-03-06T14:50:45Z</time>
      </trkpt>
      <trkpt lat="42.85877" lon="0.00885">
        <ele>1341.52</ele>
        <time>2018-03-06T14:51:00Z</time>
      </trkpt>
      <trkpt lat="42.85889" lon="0.00866">
        <ele>1342.61</ele>
        <time>2018-03-06T14:51:16Z</time>
      </trkpt>
      <trkpt lat="42.85898" lon="0.00845">
        <ele>1340.55</ele>
        <time>2018-03-06T14:51:31Z</time>
      </trkpt>
      <trkpt lat="42.85911" lon="0.00826">
        <ele>1341.52</ele>
        <time>2018-03-06T14:51:45Z</time>
      </trkpt>
      <trkpt lat="42.85918" lon="0.00804">
        <ele>1343.52</ele>
        <time>2018-03-06T14:52:00Z</time>
      </trkpt>
      <trkpt lat="42.85928" lon="0.00782">
        <ele>1344.52</ele>
        <time>2018-03-06T14:52:18Z</time>
      </trkpt>
      <trkpt lat="42.85936" lon="0.0076">
        <ele>1342.55</ele>
        <time>2018-03-06T14:52:34Z</time>
      </trkpt>
      <trkpt lat="42.85946" lon="0.00739">
        <ele>1342.82</ele>
        <time>2018-03-06T14:52:48Z</time>
      </trkpt>
      <trkpt lat="42.85958" lon="0.00719">
        <ele>1341.5</ele>
        <time>2018-03-06T14:53:05Z</time>
      </trkpt>
      <trkpt lat="42.85969" lon="0.00698">
        <ele>1336.53</ele>
        <time>2018-03-06T14:53:20Z</time>
      </trkpt>
      <trkpt lat="42.8598" lon="0.00678">
        <ele>1333.52</ele>
        <time>2018-03-06T14:53:35Z</time>
      </trkpt>
      <trkpt lat="42.85988" lon="0.00655">
        <ele>1330.52</ele>
        <time>2018-03-06T14:53:50Z</time>
      </trkpt>
      <trkpt lat="42.85985" lon="0.00631">
        <ele>1329.52</ele>
        <time>2018-03-06T14:54:03Z</time>
      </trkpt>
      <trkpt lat="42.85981" lon="0.00606">
        <ele>1329.43</ele>
        <time>2018-03-06T14:54:19Z</time>
      </trkpt>
      <trkpt lat="42.85976" lon="0.00582">
        <ele>1330.52</ele>
        <time>2018-03-06T14:54:34Z</time>
      </trkpt>
      <trkpt lat="42.85976" lon="0.00556">
        <ele>1327.61</ele>
        <time>2018-03-06T14:54:51Z</time>
      </trkpt>
      <trkpt lat="42.85979" lon="0.00531">
        <ele>1325.52</ele>
        <time>2018-03-06T14:55:07Z</time>
      </trkpt>
      <trkpt lat="42.85978" lon="0.00505">
        <ele>1323.52</ele>
        <time>2018-03-06T14:55:22Z</time>
      </trkpt>
      <trkpt lat="42.85977" lon="0.00479">
        <ele>1319.55</ele>
        <time>2018-03-06T14:55:38Z</time>
      </trkpt>
      <trkpt lat="42.85975" lon="0.00454">
        <ele>1317.61</ele>
        <time>2018-03-06T14:55:53Z</time>
      </trkpt>
      <trkpt lat="42.8597" lon="0.00429">
        <ele>1316.59</ele>
        <time>2018-03-06T14:56:08Z</time>
      </trkpt>
      <trkpt lat="42.85959" lon="0.00409">
        <ele>1314.61</ele>
        <time>2018-03-06T14:56:23Z</time>
      </trkpt>
      <trkpt lat="42.85978" lon="0.00411">
        <ele>1311.49</ele>
        <time>2018-03-06T14:56:47Z</time>
      </trkpt>
      <trkpt lat="42.85986" lon="0.00432">
        <ele>1313.43</ele>
        <time>2018-03-06T14:57:01Z</time>
      </trkpt>
      <trkpt lat="42.85996" lon="0.00453">
        <ele>1313.82</ele>
        <time>2018-03-06T14:57:15Z</time>
      </trkpt>
      <trkpt lat="42.8601" lon="0.00469">
        <ele>1310.62</ele>
        <time>2018-03-06T14:57:30Z</time>
      </trkpt>
      <trkpt lat="42.86024" lon="0.00487">
        <ele>1309.22</ele>
        <time>2018-03-06T14:57:44Z</time>
      </trkpt>
      <trkpt lat="42.86025" lon="0.00513">
        <ele>1311.52</ele>
        <time>2018-03-06T14:57:59Z</time>
      </trkpt>
      <trkpt lat="42.86026" lon="0.00539">
        <ele>1313.31</ele>
        <time>2018-03-06T14:58:13Z</time>
      </trkpt>
      <trkpt lat="42.86033" lon="0.00562">
        <ele>1310.64</ele>
        <time>2018-03-06T14:58:29Z</time>
      </trkpt>
      <trkpt lat="42.86048" lon="0.00577">
        <ele>1301.56</ele>
        <time>2018-03-06T14:58:46Z</time>
      </trkpt>
      <trkpt lat="42.86059" lon="0.00599">
        <ele>1301.21</ele>
        <time>2018-03-06T14:59:01Z</time>
      </trkpt>
      <trkpt lat="42.86063" lon="0.00624">
        <ele>1302.61</ele>
        <time>2018-03-06T14:59:16Z</time>
      </trkpt>
      <trkpt lat="42.8607" lon="0.00602">
        <ele>1290.52</ele>
        <time>2018-03-06T14:59:42Z</time>
      </trkpt>
      <trkpt lat="42.86061" lon="0.00579">
        <ele>1288.53</ele>
        <time>2018-03-06T14:59:58Z</time>
      </trkpt>
      <trkpt lat="42.86052" lon="0.00558">
        <ele>1284.82</ele>
        <time>2018-03-06T15:00:12Z</time>
      </trkpt>
      <trkpt lat="42.86046" lon="0.00534">
        <ele>1281.52</ele>
        <time>2018-03-06T15:00:27Z</time>
      </trkpt>
      <trkpt lat="42.86049" lon="0.00509">
        <ele>1280.53</ele>
        <time>2018-03-06T15:00:42Z</time>
      </trkpt>
      <trkpt lat="42.86054" lon="0.00485">
        <ele>1278.55</ele>
        <time>2018-03-06T15:00:55Z</time>
      </trkpt>
      <trkpt lat="42.8606" lon="0.0046">
        <ele>1278.52</ele>
        <time>2018-03-06T15:01:10Z</time>
      </trkpt>
      <trkpt lat="42.86059" lon="0.00435">
        <ele>1278.52</ele>
        <time>2018-03-06T15:01:25Z</time>
      </trkpt>
    </trkseg>
  </trk>
</gpx>